Data Archive--April, 2005

Date Time Heat Index Current Temp Wind Chill High Temp Low Temp Humidity Dew Point Wind Speed Gust Wind Direction Rain Barometer
04/01/2005 12:00 a -- 42.5 42.5 42.7 42.3 -- -- 0.0 2.0 N 0.00 29.955
04/01/2005 12:30 a -- 42.4 42.4 42.6 42.3 -- -- 0.0 3.0 N 0.00 29.942
04/01/2005 1:00 a -- 42.5 42.5 42.7 42.3 -- -- 0.0 3.0 WNW 0.00 29.945
04/01/2005 1:30 a -- 42.8 42.8 43.0 42.5 -- -- 0.0 2.0 NNW 0.00 29.955
04/01/2005 2:00 a -- 42.6 42.6 42.9 42.3 -- -- 0.0 0.0 --- 0.00 29.955
04/01/2005 2:30 a -- 42.2 42.2 42.5 42.0 -- -- 0.0 1.0 --- 0.00 29.948
04/01/2005 3:00 a -- 41.9 41.9 42.0 41.7 -- -- 0.0 1.0 NNW 0.00 29.944
04/01/2005 3:30 a -- 42.1 42.1 42.3 41.9 -- -- 0.0 1.0 --- 0.00 29.958
04/01/2005 4:00 a -- 42.1 42.1 42.4 41.9 -- -- 0.0 1.0 NNW 0.00 29.960
04/01/2005 4:30 a -- 42.1 42.1 42.3 42.0 -- -- 0.0 2.0 NNW 0.00 29.955
04/01/2005 5:00 a -- 42.4 42.4 42.7 42.2 -- -- 0.0 2.0 NNW 0.00 29.962
04/01/2005 5:30 a -- 42.6 42.6 42.8 42.3 -- -- 0.0 2.0 NNW 0.00 29.963
04/01/2005 6:00 a -- 42.7 42.7 42.9 42.5 -- -- 0.0 2.0 NNW 0.00 29.971
04/01/2005 6:30 a -- 43.0 43.0 43.3 42.8 -- -- 0.0 2.0 NNW 0.00 29.980
04/01/2005 7:00 a -- 43.6 43.6 44.0 43.2 -- -- 0.0 2.0 NNW 0.00 29.985
04/01/2005 7:30 a -- 44.0 44.0 44.5 43.7 -- -- 0.0 1.0 --- 0.00 29.997
04/01/2005 8:00 a -- 44.8 44.8 46.1 44.2 -- -- 0.0 2.0 --- 0.00 29.999
04/01/2005 8:30 a -- 46.4 46.4 47.2 45.3 -- -- 0.0 2.0 NNW 0.00 30.008
04/01/2005 9:00 a -- 46.6 46.6 47.7 45.8 -- -- 0.0 1.0 NNW 0.00 30.009
04/01/2005 9:30 a -- 47.7 47.7 48.9 46.6 -- -- 0.0 2.0 NNW 0.00 30.004
04/01/2005 10:00 a -- 49.2 49.2 50.1 48.2 -- -- 0.0 2.0 NNW 0.00 30.003
04/01/2005 10:30 a -- 51.1 51.1 52.2 50.0 -- -- 0.0 2.0 NNW 0.00 29.989
04/01/2005 11:00 a -- 51.9 51.9 52.8 51.0 -- -- 0.0 2.0 NNW 0.00 29.989
04/01/2005 11:30 a -- 52.0 52.0 52.5 51.3 -- -- 0.0 1.0 NNW 0.00 29.990
04/01/2005 12:00 p -- 52.7 52.7 53.5 51.8 -- -- 0.0 2.0 NNW 0.00 29.986
04/01/2005 12:30 p -- 53.1 53.1 54.2 52.2 -- -- 0.0 2.0 NNW 0.00 29.984
04/01/2005 1:00 p -- 54.0 54.0 55.5 53.2 -- -- 0.0 2.0 NNW 0.00 29.981
04/01/2005 1:30 p -- 56.5 56.5 57.4 54.9 -- -- 0.0 3.0 N 0.00 29.964
04/01/2005 2:00 p -- 57.4 57.4 58.8 56.1 -- -- 0.0 4.0 N 0.00 29.957
04/01/2005 2:30 p -- 56.7 56.7 58.1 55.6 -- -- 1.0 3.0 N 0.00 29.953
04/01/2005 3:00 p -- 56.3 56.3 57.3 55.2 -- -- 1.0 5.0 N 0.00 29.951
04/01/2005 3:30 p -- 55.2 55.2 56.2 54.1 -- -- 1.0 4.0 N 0.00 29.945
04/01/2005 7:00 p -- 47.5 47.5 47.7 47.2 -- -- 0.0 2.0 N 0.00 19.217
04/01/2005 7:30 p -- 47.0 47.0 47.3 46.3 -- -- 0.0 3.0 N 0.00 29.916
04/01/2005 8:00 p -- 46.3 46.3 46.5 45.8 -- -- 0.0 2.0 N 0.00 29.920
04/01/2005 8:30 p -- 45.8 45.8 46.1 45.4 -- -- 1.0 5.0 N 0.00 29.881
04/01/2005 9:00 p -- 45.0 45.0 45.4 44.6 -- -- 1.0 4.0 WNW 0.00 29.880
04/01/2005 9:30 p -- 44.7 44.7 45.4 44.3 -- -- 1.0 5.0 N 0.00 29.868
04/01/2005 10:00 p -- 44.6 44.6 45.7 44.1 -- -- 1.0 5.0 WNW 0.00 29.877
04/01/2005 10:30 p -- 44.5 44.5 45.7 44.1 -- -- 1.0 5.0 SSE 0.00 29.951
04/01/2005 11:00 p -- 44.0 44.0 44.6 43.9 -- -- 0.0 3.0 SSW 0.00 29.890
04/01/2005 11:30 p -- 43.7 43.7 43.9 43.5 -- -- 1.0 3.0 NW 0.00 29.869
04/02/2005 12:00 a -- 43.6 43.6 43.9 43.5 -- -- 0.0 3.0 NW 0.01 29.845
04/02/2005 12:30 a -- 43.5 43.5 43.7 43.3 -- -- 1.0 3.0 NW 0.02 29.813
04/02/2005 1:00 a -- 43.5 43.5 43.7 43.4 -- -- 1.0 4.0 WNW 0.01 29.787
04/02/2005 1:30 a -- 43.8 43.8 44.0 43.6 -- -- 2.0 4.0 WNW 0.00 29.761
04/02/2005 2:00 a -- 43.7 43.7 43.9 43.3 -- -- 1.0 5.0 NW 0.01 29.746
04/02/2005 2:30 a -- 42.8 42.8 43.3 42.3 -- -- 1.0 4.0 WNW 0.08 29.730
04/02/2005 3:00 a -- 42.3 42.3 42.4 42.1 -- -- 2.0 5.0 WNW 0.05 29.700
04/02/2005 3:30 a -- 42.2 42.2 42.3 42.1 -- -- 2.0 4.0 WNW 0.04 29.692
04/02/2005 4:00 a -- 42.1 42.1 42.3 41.9 -- -- 1.0 5.0 WNW 0.01 29.670
04/02/2005 4:30 a -- 42.0 42.0 42.1 41.8 -- -- 2.0 5.0 WNW 0.00 29.646
04/02/2005 5:00 a -- 41.9 41.9 42.0 41.8 -- -- 1.0 5.0 WNW 0.02 29.648
04/02/2005 5:30 a -- 42.0 42.0 42.1 41.9 -- -- 2.0 4.0 WNW 0.05 29.628
04/02/2005 6:00 a -- 42.0 42.0 42.1 41.8 -- -- 1.0 5.0 NW 0.04 29.604
04/02/2005 6:30 a -- 41.8 41.8 42.0 41.7 -- -- 1.0 5.0 WNW 0.06 29.604
04/02/2005 7:00 a -- 41.7 41.7 41.8 41.6 -- -- 1.0 5.0 WNW 0.02 29.583
04/02/2005 7:30 a -- 42.0 42.0 42.1 41.8 -- -- 1.0 3.0 WNW 0.13 29.563
04/02/2005 8:00 a -- 41.7 41.7 42.5 41.3 -- -- 1.0 5.0 WNW 0.08 29.535
04/02/2005 8:30 a -- 41.6 41.6 41.9 41.3 -- -- 1.0 5.0 WSW 0.06 29.530
04/02/2005 9:00 a -- 41.8 41.8 42.0 41.6 -- -- 1.0 4.0 W 0.03 29.502
04/02/2005 9:30 a -- 42.4 42.4 42.7 41.9 -- -- 1.0 4.0 WNW 0.03 29.487
04/02/2005 10:00 a -- 43.0 43.0 43.5 42.4 -- -- 1.0 4.0 WNW 0.02 29.464
04/02/2005 10:30 a -- 44.6 44.6 45.9 43.5 -- -- 0.0 2.0 WNW 0.00 29.442
04/02/2005 11:00 a -- 46.8 46.8 48.2 45.9 -- -- 0.0 2.0 WNW 0.01 29.426
04/02/2005 11:30 a -- 53.6 53.6 56.3 48.2 -- -- 1.0 6.0 N 0.00 29.399
04/02/2005 12:00 p -- 56.5 56.5 56.7 56.1 -- -- 3.0 11.0 N 0.01 29.375
04/02/2005 12:30 p -- 56.5 56.5 57.0 56.2 -- -- 3.0 11.0 N 0.02 29.364
04/02/2005 1:00 p -- 57.2 57.2 57.6 56.7 -- -- 3.0 11.0 N 0.01 29.332
04/02/2005 1:30 p -- 57.6 57.6 57.8 57.4 -- -- 4.0 11.0 N 0.00 29.322
04/02/2005 2:00 p -- 57.8 57.8 58.0 57.6 -- -- 4.0 13.0 N 0.01 29.303
04/02/2005 2:30 p -- 57.7 57.7 57.9 57.5 -- -- 4.0 10.0 N 0.00 29.280
04/02/2005 3:00 p -- 56.9 56.9 57.6 56.6 -- -- 3.0 10.0 N 0.09 29.256
04/02/2005 3:30 p -- 56.6 56.6 56.8 56.5 -- -- 4.0 13.0 N 0.00 29.242
04/02/2005 4:00 p -- 56.7 56.7 56.9 56.4 -- -- 4.0 12.0 N 0.02 29.216
04/02/2005 4:30 p -- 56.3 56.3 56.6 56.0 -- -- 3.0 12.0 N 0.05 29.203
04/02/2005 5:00 p -- 55.7 55.7 56.1 55.4 -- -- 3.0 11.0 N 0.06 29.178
04/02/2005 5:30 p -- 55.7 55.7 56.0 55.4 -- -- 4.0 11.0 N 0.06 29.162
04/02/2005 6:00 p -- 56.4 54.5 56.6 56.0 -- -- 5.0 19.0 N 0.01 29.145
04/02/2005 6:30 p -- 56.2 56.2 56.4 55.7 -- -- 4.0 14.0 N 0.02 29.145
04/02/2005 7:00 p -- 55.1 55.1 55.7 54.8 -- -- 4.0 12.0 N 0.06 29.112
04/02/2005 7:30 p -- 56.2 53.0 56.8 55.1 -- -- 6.0 18.0 N 0.01 29.109
04/02/2005 8:00 p -- 57.0 55.1 57.3 56.6 -- -- 5.0 18.0 N 0.00 29.102
04/02/2005 8:30 p -- 56.6 56.6 57.0 56.2 -- -- 4.0 17.0 N 0.00 29.090
04/02/2005 9:00 p -- 56.0 56.0 56.3 55.7 -- -- 3.0 10.0 N 0.00 29.081
04/02/2005 9:30 p -- 55.2 55.2 56.2 54.3 -- -- 3.0 9.0 N 0.00 29.075
04/02/2005 10:00 p -- 53.8 53.8 54.3 53.4 -- -- 2.0 9.0 NNW 0.00 29.061
04/02/2005 10:30 p -- 53.1 53.1 53.4 52.7 -- -- 1.0 10.0 N 0.00 29.048
04/02/2005 11:00 p -- 52.2 52.2 52.7 51.6 -- -- 2.0 7.0 N 0.00 29.041
04/02/2005 11:30 p -- 51.3 51.3 51.6 51.0 -- -- 1.0 5.0 N 0.00 29.012
04/03/2005 12:00 a -- 50.8 50.8 51.0 50.6 -- -- 1.0 6.0 N 0.00 29.007
04/03/2005 12:30 a -- 50.2 50.2 50.6 50.0 -- -- 2.0 5.0 NNW 0.00 28.972
04/03/2005 1:00 a -- 49.6 49.6 50.0 49.2 -- -- 2.0 8.0 NNW 0.00 28.985
04/03/2005 1:30 a -- 49.0 49.0 49.4 48.7 -- -- 2.0 7.0 N 0.00 28.992
04/03/2005 2:00 a -- 48.9 48.9 49.4 48.6 -- -- 3.0 9.0 N 0.00 29.005
04/03/2005 2:30 a -- 48.3 48.3 48.6 48.0 -- -- 3.0 9.0 N 0.00 29.020
04/03/2005 3:00 a -- 47.7 47.7 48.1 47.1 -- -- 2.0 9.0 N 0.00 29.034
04/03/2005 3:30 a -- 46.8 46.8 47.1 46.3 -- -- 1.0 6.0 N 0.00 29.043
04/03/2005 4:00 a -- 45.8 45.8 46.2 45.5 -- -- 1.0 6.0 N 0.00 29.056
04/03/2005 4:30 a -- 45.1 45.1 45.6 44.6 -- -- 1.0 5.0 N 0.00 29.071
04/03/2005 5:00 a -- 44.4 44.4 44.7 43.8 -- -- 1.0 6.0 N 0.00 29.085
04/03/2005 5:30 a -- 43.7 43.7 44.0 43.4 -- -- 1.0 5.0 N 0.00 29.098
04/03/2005 6:00 a -- 42.9 42.9 43.5 42.5 -- -- 1.0 5.0 N 0.00 29.113
04/03/2005 6:30 a -- 42.3 42.3 42.5 42.0 -- -- 1.0 5.0 N 0.00 29.130
04/03/2005 7:00 a -- 42.3 42.3 42.7 42.0 -- -- 1.0 4.0 N 0.00 29.142
04/03/2005 7:30 a -- 43.1 43.1 43.8 42.3 -- -- 1.0 4.0 N 0.00 29.144
04/03/2005 8:00 a -- 43.1 43.1 43.9 42.7 -- -- 1.0 4.0 N 0.00 29.148
04/03/2005 8:30 a -- 43.5 43.5 44.3 42.8 -- -- 0.0 4.0 N 0.00 29.162
04/03/2005 9:00 a -- 45.2 45.2 46.4 44.3 -- -- 0.0 5.0 SSE 0.00 29.166
04/03/2005 9:30 a -- 44.9 44.9 45.7 43.8 -- -- 1.0 7.0 SE 0.01 29.183
04/03/2005 10:00 a -- 45.2 45.2 45.9 44.1 -- -- 1.0 4.0 N 0.00 29.195
04/03/2005 11:30 a -- 47.2 47.2 49.7 45.4 -- -- 1.0 6.0 N 0.00 29.217
04/03/2005 12:00 p -- 48.3 48.3 49.9 46.9 -- -- 1.0 4.0 SE 0.00 29.216
04/03/2005 12:30 p -- 48.7 48.7 52.7 47.4 -- -- 1.0 5.0 SSE 0.00 29.221
04/03/2005 1:00 p -- 51.4 51.4 53.9 49.2 -- -- 1.0 5.0 SSE 0.00 29.224
04/03/2005 1:30 p -- 48.7 48.7 50.1 47.0 -- -- 1.0 7.0 SE 0.00 29.238
04/03/2005 2:00 p -- 47.6 47.6 48.7 46.5 -- -- 1.0 5.0 SSE 0.00 29.246
04/03/2005 2:30 p -- 48.8 48.8 50.1 47.0 -- -- 1.0 5.0 SSE 0.00 29.251
04/03/2005 3:00 p -- 45.1 45.1 47.1 44.1 -- -- 1.0 8.0 SSE 0.00 29.274
04/03/2005 3:30 p -- 44.8 44.8 45.6 44.1 -- -- 1.0 4.0 SSE 0.01 29.278
04/03/2005 4:00 p -- 46.8 46.8 49.0 44.4 -- -- 0.0 5.0 S 0.00 29.274
04/03/2005 4:30 p -- 46.4 46.4 48.4 45.4 -- -- 1.0 7.0 SSE 0.00 29.282
04/03/2005 5:00 p -- 45.7 45.7 46.8 45.2 -- -- 1.0 8.0 SE 0.00 29.299
04/03/2005 5:30 p -- 44.5 44.5 45.6 44.1 -- -- 1.0 5.0 SE 0.00 29.305
04/03/2005 6:00 p -- 43.9 43.9 44.3 43.6 -- -- 1.0 6.0 SE 0.00 29.319
04/03/2005 6:30 p -- 43.6 43.6 44.1 43.0 -- -- 1.0 5.0 SE 0.00 29.336
04/03/2005 7:00 p -- 42.9 42.9 43.5 42.3 -- -- 0.0 3.0 SSE 0.00 29.349
04/03/2005 7:30 p -- 41.9 41.9 42.7 41.6 -- -- 1.0 4.0 SSE 0.00 29.361
04/03/2005 8:00 p -- 41.9 41.9 42.1 41.7 -- -- 1.0 4.0 SE 0.00 29.373
04/03/2005 8:30 p -- 42.1 42.1 42.3 41.9 -- -- 1.0 5.0 SSE 0.00 29.385
04/03/2005 9:00 p -- 42.1 42.1 42.3 41.9 -- -- 1.0 7.0 SE 0.00 29.393
04/03/2005 9:30 p -- 42.3 42.3 42.4 42.1 -- -- 1.0 7.0 SSE 0.00 29.392
04/03/2005 10:00 p -- 42.0 42.0 42.3 41.7 -- -- 1.0 4.0 SSE 0.00 29.399
04/03/2005 10:30 p -- 42.1 42.1 42.3 41.9 -- -- 1.0 6.0 SE 0.00 29.403
04/03/2005 11:00 p -- 42.3 42.3 42.5 42.1 -- -- 1.0 5.0 SE 0.00 29.413
04/03/2005 11:30 p -- 42.5 42.5 42.9 42.1 -- -- 1.0 5.0 S 0.00 29.428
04/04/2005 12:00 a -- 42.9 42.9 43.2 42.7 -- -- 1.0 7.0 SE 0.00 29.432
04/04/2005 12:30 a -- 43.3 43.3 43.5 43.0 -- -- 1.0 4.0 SE 0.00 29.440
04/04/2005 1:00 a -- 43.4 43.4 43.7 43.1 -- -- 1.0 7.0 SE 0.00 29.443
04/04/2005 1:30 a -- 42.9 42.9 43.5 42.2 -- -- 2.0 9.0 SE 0.00 29.446
04/04/2005 2:00 a -- 42.6 42.6 42.9 42.3 -- -- 1.0 5.0 SE 0.00 29.445
04/04/2005 2:30 a -- 42.7 42.7 42.9 42.6 -- -- 1.0 6.0 SSE 0.00 29.452
04/04/2005 3:00 a -- 42.3 42.3 42.8 42.0 -- -- 1.0 5.0 SSE 0.00 29.461
04/04/2005 3:30 a -- 42.0 42.0 42.3 41.8 -- -- 0.0 4.0 SE 0.00 29.467
04/04/2005 4:00 a -- 42.1 42.1 42.3 41.7 -- -- 1.0 5.0 SE 0.00 29.477
04/04/2005 4:30 a -- 42.4 42.4 42.7 42.2 -- -- 0.0 3.0 S 0.00 29.486
04/04/2005 5:00 a -- 42.5 42.5 42.9 42.0 -- -- 1.0 7.0 SE 0.00 29.500
04/04/2005 5:30 a -- 41.8 41.8 42.1 41.3 -- -- 1.0 8.0 SE 0.00 29.504
04/04/2005 6:00 a -- 41.8 41.8 42.4 41.2 -- -- 1.0 6.0 SE 0.00 29.524
04/04/2005 6:30 a -- 43.5 43.5 44.7 42.2 -- -- 1.0 6.0 SE 0.00 29.544
04/04/2005 7:00 a -- 44.9 44.9 45.3 44.4 -- -- 0.0 4.0 SSE 0.00 29.556
04/04/2005 7:30 a -- 45.7 45.7 46.3 45.0 -- -- 0.0 3.0 SSE 0.00 29.568
04/04/2005 8:00 a -- 46.9 46.9 47.6 46.1 -- -- 1.0 6.0 SE 0.00 29.575
04/04/2005 8:30 a -- 48.5 48.5 49.9 47.5 -- -- 3.0 13.0 SE 0.00 29.580
04/04/2005 9:00 a -- 49.1 49.1 49.9 48.4 -- -- 3.0 16.0 SE 0.00 29.596
04/04/2005 9:30 a -- 49.6 49.6 51.1 48.6 -- -- 3.0 19.0 SE 0.00 29.609
04/04/2005 10:00 a -- 49.7 49.7 51.0 49.1 -- -- 3.0 9.0 SE 0.00 29.615
04/04/2005 10:30 a -- 51.0 51.0 52.1 50.1 -- -- 3.0 10.0 SE 0.00 29.630
04/04/2005 11:00 a -- 50.7 50.7 52.0 49.6 -- -- 3.0 11.0 SE 0.00 29.629
04/04/2005 11:30 a -- 53.3 53.3 55.9 51.1 -- -- 3.0 12.0 SE 0.00 29.638
04/04/2005 12:00 p -- 53.7 53.7 55.1 52.0 -- -- 3.0 10.0 SE 0.00 29.628
04/04/2005 12:30 p -- 56.1 56.1 58.2 54.5 -- -- 3.0 14.0 SE 0.00 29.619
04/04/2005 1:00 p -- 56.6 56.6 57.8 55.8 -- -- 3.0 10.0 SE 0.00 29.616
04/04/2005 1:30 p -- 57.9 57.9 59.3 55.7 -- -- 4.0 14.0 SE 0.00 29.612
04/04/2005 2:00 p -- 58.9 58.9 60.1 57.8 -- -- 4.0 15.0 SE 0.00 29.607
04/04/2005 2:30 p -- 60.3 60.3 61.4 59.3 -- -- 4.0 12.0 SE 0.00 29.612
04/04/2005 3:00 p -- 61.1 61.1 61.9 59.5 -- -- 2.0 12.0 SE 0.00 29.621
04/04/2005 3:30 p -- 61.2 61.2 61.7 60.7 -- -- 2.0 9.0 SE 0.00 29.624
04/04/2005 4:00 p -- 60.8 60.8 61.3 60.3 -- -- 2.0 8.0 SE 0.00 29.632
04/04/2005 4:30 p -- 60.4 60.4 60.7 60.0 -- -- 3.0 10.0 SE 0.00 29.651
04/04/2005 5:00 p -- 59.5 59.5 60.1 59.0 -- -- 4.0 14.0 SE 0.00 29.656
04/04/2005 5:30 p -- 58.6 58.6 59.1 58.0 -- -- 3.0 11.0 SE 0.00 29.682
04/04/2005 6:00 p -- 57.6 57.6 58.4 56.8 -- -- 3.0 10.0 SE 0.00 29.696
04/04/2005 6:30 p -- 56.0 56.0 56.7 55.0 -- -- 2.0 10.0 SE 0.00 29.715
04/04/2005 7:00 p -- 54.9 54.9 55.4 54.1 -- -- 3.0 11.0 SE 0.00 29.739
04/04/2005 7:30 p -- 53.7 53.7 54.4 53.1 -- -- 2.0 9.0 SE 0.00 29.764
04/04/2005 8:00 p -- 52.4 52.4 53.1 51.9 -- -- 2.0 6.0 SE 0.00 29.781
04/04/2005 8:30 p -- 51.3 51.3 52.2 50.2 -- -- 1.0 6.0 SE 0.00 29.799
04/04/2005 9:00 p -- 50.7 50.7 51.5 49.9 -- -- 2.0 11.0 SE 0.00 29.811
04/04/2005 9:30 p -- 50.3 50.3 50.7 49.7 -- -- 2.0 11.0 SE 0.00 29.828
04/04/2005 10:00 p -- 48.8 48.8 50.1 47.5 -- -- 1.0 7.0 SE 0.00 29.840
04/04/2005 10:30 p -- 47.4 47.4 48.5 46.7 -- -- 0.0 4.0 SE 0.00 29.848
04/04/2005 11:00 p -- 46.6 46.6 47.4 46.1 -- -- 0.0 5.0 SE 0.00 29.858
04/04/2005 11:30 p -- 46.2 46.2 47.0 45.3 -- -- 0.0 5.0 SSE 0.00 29.863
04/05/2005 12:00 a -- 45.2 45.2 46.3 43.5 -- -- 0.0 4.0 SE 0.00 29.869
04/05/2005 12:30 a -- 43.2 43.2 43.5 42.5 -- -- 0.0 0.0 --- 0.00 29.868
04/05/2005 1:00 a -- 42.9 42.9 43.6 42.5 -- -- 0.0 1.0 ESE 0.00 29.879
04/05/2005 1:30 a -- 43.1 43.1 43.3 42.9 -- -- 0.0 2.0 ESE 0.00 29.890
04/05/2005 2:00 a -- 42.3 42.3 43.1 41.5 -- -- 0.0 0.0 --- 0.00 29.892
04/05/2005 2:30 a -- 40.8 40.8 41.6 40.3 -- -- 0.0 0.0 --- 0.00 29.895
04/05/2005 3:00 a -- 39.7 39.7 40.4 38.9 -- -- 0.0 0.0 --- 0.00 29.905
04/05/2005 3:30 a -- 37.9 37.9 38.9 36.6 -- -- 0.0 0.0 --- 0.00 29.916
04/05/2005 4:00 a -- 36.6 36.6 36.9 36.3 -- -- 0.0 0.0 --- 0.00 29.926
04/05/2005 4:30 a -- 36.3 36.3 36.8 36.0 -- -- 0.0 0.0 --- 0.00 29.935
04/05/2005 5:00 a -- 36.1 36.1 36.6 35.7 -- -- 0.0 0.0 --- 0.00 29.948
04/05/2005 5:30 a -- 35.5 35.5 36.3 35.0 -- -- 0.0 0.0 --- 0.00 29.966
04/05/2005 6:00 a -- 35.4 35.4 36.3 35.0 -- -- 0.0 0.0 --- 0.00 29.975
04/05/2005 6:30 a -- 37.6 37.6 39.5 36.3 -- -- 0.0 0.0 --- 0.00 29.995
04/05/2005 7:00 a -- 41.8 41.8 44.0 39.5 -- -- 0.0 1.0 ESE 0.00 30.009
04/05/2005 7:30 a -- 45.8 45.8 48.1 44.0 -- -- 0.0 3.0 NNE 0.00 30.014
04/05/2005 8:00 a -- 49.9 49.9 51.3 48.2 -- -- 0.0 3.0 SE 0.00 30.016
04/05/2005 8:30 a -- 52.3 52.3 53.3 51.3 -- -- 0.0 4.0 SE 0.00 30.027
04/05/2005 9:00 a -- 53.8 53.8 55.9 52.7 -- -- 1.0 6.0 SE 0.00 30.037
04/05/2005 9:30 a -- 56.2 56.2 57.7 54.7 -- -- 1.0 7.0 SE 0.00 30.034
04/05/2005 10:00 a -- 57.6 57.6 58.5 56.8 -- -- 1.0 9.0 SE 0.00 30.037
04/05/2005 10:30 a -- 58.7 58.7 59.9 57.8 -- -- 2.0 7.0 SE 0.00 30.039
04/05/2005 11:00 a -- 60.0 60.0 61.6 58.9 -- -- 2.0 7.0 SE 0.00 30.032
04/05/2005 11:30 a -- 61.7 61.7 63.2 60.6 -- -- 1.0 7.0 SE 0.00 30.024
04/05/2005 12:00 p -- 63.4 63.4 64.7 62.1 -- -- 1.0 6.0 SE 0.00 30.018
04/05/2005 12:30 p -- 65.0 65.0 65.9 63.7 -- -- 1.0 6.0 SE 0.00 30.010
04/05/2005 1:00 p -- 65.6 65.6 66.5 64.7 -- -- 1.0 6.0 SE 0.00 30.001
04/05/2005 1:30 p -- 66.8 66.8 67.9 65.6 -- -- 1.0 6.0 SE 0.00 29.991
04/05/2005 2:00 p -- 67.4 67.4 67.9 66.8 -- -- 1.0 5.0 SE 0.00 29.979
04/05/2005 2:30 p -- 67.7 67.7 68.3 67.0 -- -- 1.0 7.0 SSE 0.00 29.976
04/05/2005 3:00 p -- 67.7 67.7 68.5 66.8 -- -- 1.0 4.0 SE 0.00 29.975
04/05/2005 3:30 p -- 67.8 67.8 68.3 67.3 -- -- 1.0 4.0 SE 0.00 29.975
04/05/2005 4:00 p -- 67.5 67.5 68.1 66.9 -- -- 0.0 4.0 SE 0.00 29.974
04/05/2005 4:30 p -- 66.4 66.4 67.5 65.3 -- -- 1.0 5.0 SSE 0.00 29.974
04/05/2005 5:00 p -- 65.2 65.2 65.6 64.5 -- -- 1.0 4.0 SSW 0.00 29.975
04/05/2005 5:30 p -- 63.6 63.6 64.7 62.7 -- -- 0.0 3.0 SW 0.00 29.976
04/05/2005 6:00 p -- 62.1 62.1 62.9 61.4 -- -- 0.0 3.0 SSW 0.00 29.971
04/05/2005 6:30 p -- 60.1 60.1 61.5 59.4 -- -- 0.0 1.0 SSW 0.00 29.975
04/05/2005 7:00 p -- 58.3 58.3 59.4 56.9 -- -- 0.0 0.0 --- 0.00 29.975
04/05/2005 7:30 p -- 57.6 57.6 58.2 56.8 -- -- 0.0 0.0 --- 0.00 29.987
04/05/2005 8:00 p -- 55.6 55.6 57.2 54.4 -- -- 0.0 0.0 --- 0.00 30.001
04/05/2005 8:30 p -- 53.9 53.9 55.0 53.0 -- -- 0.0 0.0 --- 0.00 30.011
04/05/2005 9:00 p -- 53.2 53.2 53.5 52.6 -- -- 0.0 0.0 --- 0.00 30.019
04/05/2005 9:30 p -- 51.6 51.6 53.0 50.7 -- -- 0.0 0.0 --- 0.00 30.019
04/05/2005 10:00 p -- 50.5 50.5 50.8 49.9 -- -- 0.0 0.0 --- 0.00 30.020
04/05/2005 10:30 p -- 50.5 50.5 51.1 49.9 -- -- 0.0 0.0 --- 0.00 30.029
04/05/2005 11:00 p -- 49.9 49.9 50.8 49.1 -- -- 0.0 0.0 --- 0.00 30.027
04/05/2005 11:30 p -- 49.0 49.0 49.7 48.3 -- -- 0.0 0.0 --- 0.00 30.031
04/06/2005 12:00 a -- 48.8 48.8 49.2 48.1 -- -- 0.0 0.0 --- 0.00 30.032
04/06/2005 12:30 a -- 48.0 48.0 48.9 46.8 -- -- 0.0 0.0 --- 0.00 30.024
04/06/2005 1:00 a -- 46.5 46.5 47.1 45.8 -- -- 0.0 0.0 --- 0.00 30.021
04/06/2005 1:30 a -- 45.1 45.1 45.8 44.6 -- -- 0.0 0.0 --- 0.00 30.015
04/06/2005 2:00 a -- 44.4 44.4 44.7 44.1 -- -- 0.0 0.0 --- 0.00 30.007
04/06/2005 2:30 a -- 43.8 43.8 44.3 43.3 -- -- 0.0 0.0 --- 0.00 30.009
04/06/2005 3:00 a -- 43.0 43.0 43.4 42.7 -- -- 0.0 0.0 --- 0.00 30.003
04/06/2005 3:30 a -- 42.8 42.8 43.1 42.5 -- -- 0.0 0.0 --- 0.00 30.002
04/06/2005 4:00 a -- 42.0 42.0 42.9 41.7 -- -- 0.0 0.0 --- 0.00 29.992
04/06/2005 4:30 a -- 42.0 42.0 42.2 41.8 -- -- 0.0 0.0 --- 0.00 29.980
04/06/2005 5:00 a -- 42.3 42.3 44.1 41.3 -- -- 0.0 1.0 SSW 0.00 29.976
04/06/2005 5:30 a -- 41.9 41.9 43.3 41.6 -- -- 0.0 0.0 --- 0.00 29.996
04/06/2005 6:00 a -- 41.9 41.9 42.1 41.7 -- -- 0.0 0.0 --- 0.00 29.998
04/06/2005 6:30 a -- 42.9 42.9 44.3 41.8 -- -- 0.0 0.0 --- 0.00 30.006
04/06/2005 7:00 a -- 46.8 46.8 49.1 44.4 -- -- 0.0 0.0 --- 0.00 30.003
04/06/2005 7:30 a -- 50.9 50.9 52.3 49.2 -- -- 0.0 1.0 SSW 0.00 30.001
04/06/2005 8:00 a -- 53.9 53.9 55.4 52.3 -- -- 0.0 2.0 SSW 0.00 29.995
04/06/2005 8:30 a -- 57.0 57.0 58.5 55.2 -- -- 0.0 3.0 SE 0.00 29.996
04/06/2005 9:00 a -- 60.0 60.0 61.4 58.2 -- -- 0.0 3.0 SE 0.00 29.992
04/06/2005 9:30 a -- 62.3 62.3 65.0 60.9 -- -- 0.0 4.0 SE 0.00 29.989
04/06/2005 10:00 a -- 64.0 64.0 65.3 62.9 -- -- 0.0 2.0 N 0.00 29.980
04/06/2005 10:30 a -- 65.5 65.5 66.6 64.7 -- -- 1.0 4.0 N 0.00 29.975
04/06/2005 11:00 a -- 67.8 67.8 69.3 66.4 -- -- 1.0 4.0 ESE 0.00 29.966
04/06/2005 11:30 a -- 70.1 70.1 71.8 68.8 -- -- 1.0 5.0 SE 0.00 29.969
04/06/2005 12:00 p -- 72.7 72.7 74.1 70.8 -- -- 1.0 6.0 SE 0.00 29.964
04/06/2005 12:30 p -- 73.2 73.2 74.5 72.4 -- -- 0.0 4.0 NE 0.00 29.952
04/06/2005 1:00 p -- 74.2 74.2 75.2 72.9 -- -- 1.0 5.0 SE 0.00 29.945
04/06/2005 2:30 p -- 75.3 75.3 76.3 74.2 -- -- 1.0 5.0 SE 0.00 29.928
04/06/2005 3:00 p -- 75.9 75.9 76.3 75.4 -- -- 0.0 3.0 NNW 0.00 29.915
04/06/2005 3:30 p -- 76.5 76.5 77.3 75.6 -- -- 0.0 4.0 N 0.00 29.901
04/06/2005 4:00 p -- 77.2 77.2 77.8 76.5 -- -- 1.0 3.0 N 0.00 29.900
04/06/2005 4:30 p -- 77.0 77.0 77.9 76.1 -- -- 1.0 4.0 N 0.00 29.890
04/06/2005 5:00 p -- 76.3 76.3 77.9 75.5 -- -- 1.0 4.0 N 0.00 29.889
04/06/2005 5:30 p -- 74.4 74.4 75.7 72.6 -- -- 1.0 4.0 N 0.00 29.896
04/06/2005 6:00 p -- 70.7 70.7 72.6 69.6 -- -- 2.0 5.0 N 0.00 29.897
04/06/2005 6:30 p -- 68.8 68.8 69.8 67.5 -- -- 1.0 6.0 N 0.00 29.901
04/06/2005 7:00 p -- 66.8 66.8 67.7 65.7 -- -- 0.0 4.0 N 0.00 29.899
04/06/2005 7:30 p -- 64.8 64.8 65.8 64.0 -- -- 0.0 4.0 NW 0.00 29.909
04/06/2005 8:00 p -- 63.9 63.9 64.6 63.2 -- -- 0.0 2.0 NW 0.00 29.909
04/06/2005 8:30 p -- 62.7 62.7 63.9 61.3 -- -- 0.0 0.0 --- 0.00 29.915
04/06/2005 9:00 p -- 60.9 60.9 61.5 60.3 -- -- 0.0 0.0 --- 0.00 29.926
04/06/2005 9:30 p -- 59.8 59.8 60.4 58.8 -- -- 0.0 0.0 --- 0.00 29.921
04/06/2005 10:00 p -- 58.7 58.7 59.3 58.1 -- -- 0.0 0.0 --- 0.00 29.914
04/06/2005 10:30 p -- 56.7 56.7 58.3 55.5 -- -- 0.0 0.0 --- 0.00 29.908
04/06/2005 11:00 p -- 55.5 55.5 55.7 55.2 -- -- 0.0 0.0 --- 0.00 29.904
04/06/2005 11:30 p -- 54.8 54.8 55.6 53.9 -- -- 0.0 0.0 --- 0.00 29.909
04/07/2005 12:00 a -- 53.5 53.5 54.0 53.1 -- -- 0.0 0.0 --- 0.00 29.897
04/07/2005 12:30 a -- 53.0 53.0 53.6 52.6 -- -- 0.0 0.0 --- 0.00 29.883
04/07/2005 1:00 a -- 52.0 52.0 52.6 51.5 -- -- 0.0 0.0 --- 0.00 29.874
04/07/2005 1:30 a -- 51.2 51.2 51.5 50.7 -- -- 0.0 0.0 --- 0.00 29.869
04/07/2005 2:00 a -- 50.5 50.5 50.8 50.1 -- -- 0.0 0.0 --- 0.00 29.863
04/07/2005 2:30 a -- 49.7 49.7 50.2 49.3 -- -- 0.0 0.0 --- 0.00 29.861
04/07/2005 3:00 a -- 49.4 49.4 49.7 49.1 -- -- 0.0 0.0 --- 0.00 29.852
04/07/2005 3:30 a -- 48.5 48.5 49.0 48.1 -- -- 0.0 0.0 --- 0.00 29.844
04/07/2005 4:00 a -- 48.0 48.0 48.3 47.6 -- -- 0.0 0.0 --- 0.00 29.836
04/07/2005 4:30 a -- 47.5 47.5 47.7 47.3 -- -- 0.0 0.0 --- 0.00 29.831
04/07/2005 5:00 a -- 47.3 47.3 47.4 47.1 -- -- 0.0 0.0 --- 0.00 29.828
04/07/2005 5:30 a -- 46.9 46.9 47.3 46.7 -- -- 0.0 0.0 --- 0.00 29.828
04/07/2005 6:00 a -- 46.9 46.9 47.1 46.7 -- -- 0.0 0.0 --- 0.00 29.820
04/07/2005 6:30 a -- 46.9 46.9 47.1 46.7 -- -- 0.0 0.0 --- 0.00 29.826
04/07/2005 7:00 a -- 47.7 47.7 48.1 47.1 -- -- 0.0 0.0 --- 0.00 29.832
04/07/2005 7:30 a -- 48.9 48.9 50.2 47.8 -- -- 0.0 0.0 --- 0.00 29.837
04/07/2005 8:00 a -- 51.6 51.6 53.3 50.2 -- -- 0.0 0.0 --- 0.00 29.830
04/07/2005 8:30 a -- 55.1 55.1 57.4 53.4 -- -- 0.0 0.0 --- 0.00 29.826
04/07/2005 9:00 a -- 59.5 59.5 62.1 57.0 -- -- 0.0 0.0 --- 0.00 29.816
04/07/2005 9:30 a -- 63.6 63.6 66.2 62.2 -- -- 0.0 2.0 NW 0.00 29.817
04/07/2005 10:00 a -- 67.7 67.7 69.4 65.8 -- -- 0.0 2.0 NW 0.00 29.813
04/07/2005 10:30 a -- 70.4 70.4 72.8 69.0 -- -- 1.0 5.0 N 0.00 29.805
04/07/2005 11:00 a -- 72.1 72.1 73.8 71.0 -- -- 1.0 4.0 N 0.00 29.788
04/07/2005 11:30 a -- 73.9 73.9 75.4 71.8 -- -- 0.0 4.0 N 0.00 29.774
04/07/2005 12:00 p -- 74.0 74.0 75.0 72.9 -- -- 1.0 4.0 N 0.00 29.749
04/07/2005 12:30 p -- 76.2 76.2 79.0 74.4 -- -- 1.0 4.0 N 0.00 29.734
04/07/2005 1:00 p -- 78.6 78.6 80.6 76.8 -- -- 1.0 5.0 N 0.00 29.723
04/07/2005 1:30 p -- 78.0 78.0 79.0 77.0 -- -- 2.0 9.0 N 0.00 29.712
04/07/2005 2:00 p -- 78.7 78.7 80.4 77.2 -- -- 2.0 5.0 N 0.00 29.698
04/07/2005 2:30 p -- 79.0 79.0 81.0 77.8 -- -- 2.0 7.0 N 0.00 29.677
04/07/2005 3:00 p -- 80.4 80.4 81.6 78.5 -- -- 2.0 6.0 N 0.00 29.666
04/07/2005 3:30 p -- 78.0 78.0 78.8 76.9 -- -- 2.0 5.0 SSE 0.00 29.662
04/07/2005 4:00 p -- 76.9 76.9 77.8 76.2 -- -- 1.0 6.0 NW 0.00 29.651
04/07/2005 4:30 p -- 74.9 74.9 76.3 74.3 -- -- 1.0 6.0 SSE 0.00 29.641
04/07/2005 5:00 p -- 74.4 74.4 74.7 74.2 -- -- 1.0 5.0 SSE 0.00 29.645
04/07/2005 5:30 p -- 73.9 73.9 74.3 73.3 -- -- 1.0 4.0 SSE 0.00 29.647
04/07/2005 6:00 p -- 72.9 72.9 73.4 72.2 -- -- 1.0 6.0 S 0.00 29.645
04/07/2005 6:30 p -- 71.5 71.5 72.2 70.9 -- -- 1.0 4.0 ESE 0.00 29.647
04/07/2005 7:00 p -- 70.4 70.4 71.1 69.8 -- -- 0.0 2.0 NW 0.00 29.629
04/07/2005 7:30 p -- 69.6 69.6 69.9 69.4 -- -- 0.0 3.0 N 0.00 29.630
04/07/2005 8:00 p -- 69.6 69.6 70.0 69.3 -- -- 0.0 4.0 N 0.00 29.632
04/07/2005 8:30 p -- 69.3 69.3 69.6 68.9 -- -- 0.0 3.0 SSE 0.00 29.638
04/07/2005 9:00 p -- 69.1 69.1 69.8 68.0 -- -- 0.0 5.0 N 0.00 29.652
04/07/2005 9:30 p -- 67.5 67.5 68.5 66.7 -- -- 0.0 4.0 NNW 0.00 29.644
04/07/2005 10:00 p -- 63.3 63.3 66.8 60.9 -- -- 1.0 8.0 SE 0.35 29.673
04/07/2005 10:30 p -- 60.9 60.9 61.1 60.7 -- -- 0.0 0.0 --- 0.07 29.674
04/07/2005 11:00 p -- 60.7 60.7 60.8 60.4 -- -- 0.0 0.0 --- 0.03 29.667
04/07/2005 11:30 p -- 60.3 60.3 60.5 60.1 -- -- 0.0 0.0 --- 0.03 29.665
04/08/2005 12:00 a -- 59.9 59.9 60.1 59.7 -- -- 0.0 0.0 --- 0.11 29.668
04/08/2005 12:30 a -- 59.5 59.5 59.8 59.2 -- -- 0.0 0.0 --- 0.14 29.665
04/08/2005 1:00 a -- 59.2 59.2 59.4 59.0 -- -- 0.0 0.0 --- 0.08 29.666
04/08/2005 1:30 a -- 58.9 58.9 59.1 58.7 -- -- 0.0 0.0 --- 0.08 29.654
04/08/2005 2:00 a -- 58.4 58.4 58.8 58.0 -- -- 0.0 2.0 NNW 0.13 29.661
04/08/2005 2:30 a -- 57.8 57.8 58.0 57.6 -- -- 0.0 0.0 --- 0.05 29.651
04/08/2005 3:00 a -- 57.5 57.5 57.7 57.4 -- -- 0.0 0.0 --- 0.01 29.653
04/08/2005 3:30 a -- 57.5 57.5 57.6 57.3 -- -- 0.0 0.0 --- 0.01 29.654
04/08/2005 4:00 a -- 57.3 57.3 57.5 57.2 -- -- 0.0 0.0 --- 0.00 29.659
04/08/2005 4:30 a -- 57.4 57.4 57.6 57.3 -- -- 0.0 0.0 --- 0.01 29.672
04/08/2005 5:00 a -- 56.9 56.9 57.6 54.1 -- -- 0.0 5.0 SW 0.04 29.684
04/08/2005 5:30 a -- 53.5 53.5 54.1 52.7 -- -- 1.0 4.0 SSE 0.03 29.691
04/08/2005 6:00 a -- 53.1 53.1 53.5 52.8 -- -- 0.0 3.0 SE 0.01 29.696
04/08/2005 6:30 a -- 52.5 52.5 53.3 51.9 -- -- 0.0 3.0 SE 0.00 29.710
04/08/2005 7:00 a -- 51.7 51.7 52.0 51.5 -- -- 1.0 4.0 SSE 0.00 29.723
04/08/2005 7:30 a -- 51.3 51.3 51.6 50.9 -- -- 1.0 7.0 S 0.00 29.740
04/08/2005 8:00 a -- 50.6 50.6 51.0 50.1 -- -- 1.0 5.0 SSE 0.00 29.746
04/08/2005 8:30 a -- 50.0 50.0 50.4 49.5 -- -- 1.0 6.0 S 0.00 29.768
04/08/2005 9:00 a -- 50.0 50.0 50.6 49.5 -- -- 1.0 6.0 SSE 0.00 29.773
04/08/2005 9:30 a -- 54.1 54.1 55.8 50.4 -- -- 1.0 7.0 SSW 0.00 29.782
04/08/2005 10:00 a -- 56.0 56.0 57.4 55.3 -- -- 1.0 4.0 SSW 0.00 29.786
04/08/2005 10:30 a -- 56.5 56.5 57.6 55.1 -- -- 2.0 6.0 WNW 0.00 29.797
04/08/2005 11:00 a -- 57.8 57.8 59.7 56.0 -- -- 2.0 5.0 WSW 0.00 29.808
04/08/2005 11:30 a -- 59.7 59.7 60.9 58.5 -- -- 1.0 6.0 SE 0.00 29.813
04/08/2005 12:00 p -- 60.0 60.0 62.1 58.3 -- -- 1.0 5.0 SW 0.00 29.810
04/08/2005 12:30 p -- 62.0 62.0 64.7 59.5 -- -- 1.0 6.0 SW 0.00 29.803
04/08/2005 1:00 p -- 63.5 63.5 64.8 62.8 -- -- 1.0 5.0 W 0.00 29.807
04/08/2005 1:30 p -- 63.8 63.8 64.6 62.8 -- -- 2.0 6.0 SE 0.00 29.798
04/08/2005 2:00 p -- 65.0 65.0 65.9 64.2 -- -- 1.0 5.0 SW 0.00 29.789
04/08/2005 2:30 p -- 65.7 65.7 66.6 65.1 -- -- 1.0 4.0 SW 0.00 29.783
04/08/2005 3:00 p -- 66.8 66.8 67.4 66.2 -- -- 1.0 5.0 SSW 0.00 29.781
04/08/2005 3:30 p -- 66.5 66.5 67.1 65.5 -- -- 1.0 6.0 SW 0.00 29.774
04/08/2005 4:00 p -- 65.9 65.9 66.6 65.2 -- -- 1.0 6.0 SW 0.00 29.781
04/08/2005 4:30 p -- 65.7 65.7 66.6 64.8 -- -- 1.0 4.0 WNW 0.00 29.782
04/08/2005 5:00 p -- 65.3 65.3 65.9 64.8 -- -- 1.0 5.0 SSW 0.00 29.789
04/08/2005 5:30 p -- 64.9 64.9 65.7 64.1 -- -- 1.0 3.0 SW 0.00 29.797
04/08/2005 6:00 p -- 63.7 63.7 64.2 63.2 -- -- 0.0 3.0 NW 0.00 29.791
04/08/2005 6:30 p -- 63.0 63.0 63.5 62.4 -- -- 1.0 4.0 WNW 0.00 29.798
04/08/2005 7:00 p -- 61.6 61.6 62.4 60.4 -- -- 0.0 3.0 N 0.00 29.801
04/08/2005 7:30 p -- 58.0 58.0 60.6 55.1 -- -- 1.0 7.0 N 0.00 29.811
04/08/2005 8:00 p -- 53.8 53.8 55.1 52.8 -- -- 0.0 4.0 N 0.00 29.827
04/08/2005 8:30 p -- 52.1 52.1 52.8 50.9 -- -- 0.0 3.0 WNW 0.00 29.849
04/08/2005 9:00 p -- 50.1 50.1 51.4 49.1 -- -- 0.0 2.0 N 0.00 29.865
04/08/2005 9:30 p -- 49.1 49.1 50.2 48.2 -- -- 0.0 4.0 N 0.00 29.888
04/08/2005 10:00 p -- 46.9 46.9 48.2 46.1 -- -- 0.0 1.0 N 0.00 29.893
04/08/2005 10:30 p -- 46.2 46.2 46.8 45.8 -- -- 0.0 0.0 --- 0.00 29.893
04/08/2005 11:00 p -- 46.2 46.2 47.2 45.4 -- -- 0.0 0.0 --- 0.00 29.902
04/08/2005 11:30 p -- 44.6 44.6 45.8 44.0 -- -- 0.0 0.0 --- 0.00 29.921
04/09/2005 12:00 a -- 43.9 43.9 44.2 43.7 -- -- 0.0 0.0 --- 0.00 29.933
04/09/2005 12:30 a -- 43.3 43.3 43.9 42.8 -- -- 0.0 0.0 --- 0.00 29.939
04/09/2005 1:00 a -- 42.8 42.8 43.2 42.3 -- -- 0.0 0.0 --- 0.00 29.937
04/09/2005 1:30 a -- 41.9 41.9 42.5 41.4 -- -- 0.0 0.0 --- 0.00 29.940
04/09/2005 2:00 a -- 41.5 41.5 41.9 40.9 -- -- 0.0 0.0 --- 0.00 29.933
04/09/2005 2:30 a -- 40.9 40.9 41.0 40.7 -- -- 0.0 0.0 --- 0.00 29.932
04/09/2005 3:00 a -- 40.4 40.4 40.7 40.1 -- -- 0.0 0.0 --- 0.00 29.935
04/09/2005 3:30 a -- 41.6 41.6 43.3 40.1 -- -- 0.0 0.0 --- 0.00 29.938
04/09/2005 4:00 a -- 44.7 44.7 46.1 43.4 -- -- 0.0 3.0 N 0.00 29.937
04/09/2005 4:30 a -- 46.4 46.4 46.8 46.0 -- -- 0.0 3.0 WSW 0.00 29.942
04/09/2005 5:00 a -- 46.1 46.1 46.6 45.5 -- -- 0.0 1.0 SSW 0.00 29.946
04/09/2005 5:30 a -- 45.2 45.2 45.9 44.2 -- -- 0.0 0.0 --- 0.00 29.956
04/09/2005 6:00 a -- 43.6 43.6 44.4 43.2 -- -- 0.0 0.0 --- 0.00 29.967
04/09/2005 6:30 a -- 43.6 43.6 44.2 43.1 -- -- 0.0 0.0 --- 0.00 29.988
04/09/2005 7:00 a -- 44.2 44.2 45.5 43.2 -- -- 0.0 0.0 --- 0.00 30.006
04/09/2005 7:30 a -- 46.7 46.7 48.1 45.5 -- -- 0.0 1.0 SSW 0.00 30.016
04/09/2005 8:00 a -- 49.3 49.3 50.4 48.1 -- -- 0.0 4.0 WSW 0.00 30.022
04/09/2005 8:30 a -- 51.3 51.3 52.1 50.5 -- -- 1.0 5.0 WNW 0.00 30.027
04/09/2005 9:00 a -- 53.0 53.0 54.1 52.1 -- -- 2.0 5.0 WNW 0.00 30.033
04/09/2005 9:30 a -- 54.3 54.3 55.2 53.6 -- -- 2.0 7.0 W 0.00 30.042
04/09/2005 10:00 a -- 55.7 55.7 56.7 54.9 -- -- 2.0 6.0 SW 0.00 30.040
04/09/2005 10:30 a -- 57.4 57.4 58.4 56.3 -- -- 2.0 5.0 WNW 0.00 30.045
04/09/2005 11:00 a -- 58.8 58.8 59.4 58.0 -- -- 1.0 5.0 WNW 0.00 30.046
04/09/2005 11:30 a -- 59.4 59.4 60.3 58.5 -- -- 2.0 5.0 WNW 0.00 30.050
04/09/2005 12:00 p -- 60.6 60.6 61.3 59.7 -- -- 1.0 5.0 WNW 0.00 30.044
04/09/2005 12:30 p -- 61.3 61.3 62.7 60.6 -- -- 1.0 6.0 WNW 0.00 30.034
04/09/2005 1:00 p -- 62.7 62.7 63.6 61.9 -- -- 1.0 6.0 W 0.00 30.025
04/09/2005 1:30 p -- 63.9 63.9 65.2 62.5 -- -- 1.0 4.0 N 0.00 30.012
04/09/2005 2:00 p -- 64.4 64.4 65.3 63.3 -- -- 2.0 6.0 NW 0.00 30.000
04/09/2005 2:30 p -- 64.3 64.3 65.1 63.3 -- -- 1.0 5.0 N 0.00 29.990
04/09/2005 3:00 p -- 63.5 63.5 65.8 61.3 -- -- 2.0 7.0 N 0.00 29.981
04/09/2005 3:30 p -- 60.5 60.5 61.8 59.3 -- -- 2.0 8.0 NNW 0.00 29.977
04/09/2005 4:00 p -- 60.0 60.0 61.1 58.5 -- -- 2.0 7.0 N 0.00 29.974
04/09/2005 4:30 p -- 59.1 59.1 59.9 58.5 -- -- 2.0 6.0 N 0.00 29.965
04/09/2005 5:00 p -- 58.4 58.4 59.0 57.8 -- -- 1.0 5.0 N 0.00 29.960
04/09/2005 5:30 p -- 57.1 57.1 57.8 56.4 -- -- 1.0 4.0 N 0.00 29.961
04/09/2005 6:00 p -- 55.9 55.9 56.5 55.1 -- -- 1.0 5.0 N 0.00 29.965
04/09/2005 6:30 p -- 54.2 54.2 55.2 53.2 -- -- 1.0 5.0 N 0.00 29.962
04/09/2005 7:00 p -- 52.5 52.5 53.2 51.7 -- -- 1.0 4.0 N 0.00 29.959
04/09/2005 7:30 p -- 50.9 50.9 51.7 50.1 -- -- 0.0 1.0 NNW 0.00 29.972
04/09/2005 8:00 p -- 49.4 49.4 50.1 48.7 -- -- 0.0 2.0 NNW 0.00 29.979
04/09/2005 8:30 p -- 48.5 48.5 49.2 47.5 -- -- 0.0 2.0 NNW 0.00 29.982
04/09/2005 9:00 p -- 47.0 47.0 47.5 46.5 -- -- 0.0 2.0 NNW 0.00 29.990
04/09/2005 9:30 p -- 46.0 46.0 46.7 45.1 -- -- 0.0 0.0 --- 0.00 30.000
04/09/2005 10:00 p -- 45.2 45.2 45.7 44.8 -- -- 0.0 0.0 --- 0.00 30.004
04/09/2005 10:30 p -- 44.1 44.1 45.1 43.1 -- -- 0.0 0.0 --- 0.00 30.004
04/09/2005 11:00 p -- 42.6 42.6 43.5 42.1 -- -- 0.0 0.0 --- 0.00 30.012
04/09/2005 11:30 p -- 41.6 41.6 42.3 41.0 -- -- 0.0 0.0 --- 0.00 30.011
04/10/2005 12:00 a -- 41.2 41.2 41.4 40.5 -- -- 0.0 0.0 --- 0.00 30.013
04/10/2005 12:30 a -- 40.2 40.2 40.6 39.9 -- -- 0.0 0.0 --- 0.00 30.007
04/10/2005 1:00 a -- 39.8 39.8 40.2 39.3 -- -- 0.0 0.0 --- 0.00 30.001
04/10/2005 1:30 a -- 39.2 39.2 39.8 38.9 -- -- 0.0 0.0 --- 0.00 29.996
04/10/2005 2:00 a -- 38.7 38.7 39.3 38.1 -- -- 0.0 0.0 --- 0.00 29.981
04/10/2005 2:30 a -- 38.1 38.1 38.3 37.8 -- -- 0.0 0.0 --- 0.00 29.971
04/10/2005 3:00 a -- 37.8 37.8 38.1 37.4 -- -- 0.0 0.0 --- 0.00 29.962
04/10/2005 3:30 a -- 36.9 36.9 37.5 36.6 -- -- 0.0 0.0 --- 0.00 29.951
04/10/2005 4:00 a -- 36.7 36.7 36.9 36.3 -- -- 0.0 0.0 --- 0.00 29.947
04/10/2005 4:30 a -- 36.1 36.1 36.4 35.9 -- -- 0.0 0.0 --- 0.00 29.940
04/10/2005 5:00 a -- 36.5 36.5 38.8 35.7 -- -- 0.0 1.0 --- 0.00 29.932
04/10/2005 5:30 a -- 36.0 36.0 37.2 35.6 -- -- 0.0 0.0 --- 0.00 29.938
04/10/2005 6:00 a -- 36.4 36.4 39.0 34.8 -- -- 0.0 0.0 --- 0.00 29.942
04/10/2005 6:30 a -- 34.8 34.8 35.1 34.5 -- -- 0.0 0.0 --- 0.00 29.945
04/10/2005 7:00 a -- 35.8 35.8 36.5 35.0 -- -- 0.0 0.0 --- 0.00 29.955
04/10/2005 7:30 a -- 37.9 37.9 39.8 36.5 -- -- 0.0 0.0 --- 0.00 29.959
04/10/2005 8:00 a -- 42.1 42.1 44.3 39.9 -- -- 0.0 0.0 --- 0.00 29.955
04/10/2005 8:30 a -- 46.3 46.3 48.2 44.3 -- -- 0.0 2.0 NNW 0.00 29.953
04/10/2005 9:00 a -- 50.9 50.9 53.1 48.2 -- -- 0.0 2.0 NNW 0.00 29.948
04/10/2005 9:30 a -- 54.4 54.4 55.6 53.1 -- -- 0.0 3.0 SE 0.00 29.950
04/10/2005 10:00 a -- 56.7 56.7 58.6 55.5 -- -- 0.0 2.0 E 0.00 29.947
04/10/2005 10:30 a -- 59.6 59.6 61.1 58.2 -- -- 0.0 3.0 E 0.00 29.944
04/10/2005 11:00 a -- 62.7 62.7 64.8 61.2 -- -- 0.0 3.0 E 0.00 29.932
04/10/2005 11:30 a -- 65.5 65.5 67.0 64.0 -- -- 1.0 5.0 N 0.00 29.921
04/10/2005 12:00 p -- 67.7 67.7 68.8 66.4 -- -- 1.0 3.0 N 0.00 29.905
04/10/2005 12:30 p -- 69.8 69.8 71.5 68.4 -- -- 1.0 4.0 NNW 0.00 29.890
04/10/2005 1:00 p -- 72.1 72.1 73.0 71.0 -- -- 1.0 7.0 SE 0.00 29.879
04/10/2005 1:30 p -- 73.1 73.1 74.3 72.2 -- -- 1.0 5.0 SE 0.00 29.872
04/10/2005 2:00 p -- 73.7 73.7 74.5 73.1 -- -- 2.0 8.0 SE 0.00 29.858
04/10/2005 2:30 p -- 73.9 73.9 74.5 73.0 -- -- 2.0 6.0 SE 0.00 29.846
04/10/2005 3:00 p -- 74.0 74.0 74.6 73.5 -- -- 1.0 6.0 NW 0.00 29.845
04/10/2005 3:30 p -- 74.2 74.2 74.8 73.6 -- -- 1.0 5.0 NNW 0.00 29.835
04/10/2005 4:00 p -- 73.8 73.8 74.3 73.1 -- -- 1.0 5.0 N 0.00 29.829
04/10/2005 4:30 p -- 72.4 72.4 73.9 71.6 -- -- 2.0 5.0 N 0.00 29.827
04/10/2005 5:00 p -- 72.0 72.0 72.6 71.5 -- -- 2.0 4.0 N 0.00 29.827
04/10/2005 5:30 p -- 71.3 71.3 71.7 70.8 -- -- 1.0 5.0 N 0.00 29.828
04/10/2005 6:00 p -- 70.6 70.6 71.1 69.7 -- -- 1.0 5.0 N 0.00 29.824
04/10/2005 6:30 p -- 69.3 69.3 69.8 68.6 -- -- 0.0 3.0 N 0.00 29.822
04/10/2005 7:00 p -- 67.0 67.0 69.4 65.1 -- -- 0.0 2.0 N 0.00 29.830
04/10/2005 7:30 p -- 64.2 64.2 65.1 63.0 -- -- 0.0 3.0 N 0.00 29.829
04/10/2005 8:00 p -- 62.0 62.0 63.2 61.0 -- -- 0.0 0.0 --- 0.00 29.835
04/10/2005 8:30 p -- 59.5 59.5 61.0 58.4 -- -- 0.0 0.0 --- 0.00 29.851
04/10/2005 9:00 p -- 57.3 57.3 58.6 56.7 -- -- 0.0 0.0 --- 0.00 29.864
04/10/2005 9:30 p -- 56.6 56.6 57.3 55.5 -- -- 0.0 0.0 --- 0.00 29.872
04/10/2005 10:00 p -- 54.2 54.2 55.5 52.9 -- -- 0.0 0.0 --- 0.00 29.868
04/10/2005 10:30 p -- 54.1 54.1 55.0 53.1 -- -- 0.0 0.0 --- 0.00 29.874
04/10/2005 11:00 p -- 52.6 52.6 53.9 51.8 -- -- 0.0 0.0 --- 0.00 29.872
04/10/2005 11:30 p -- 51.2 51.2 52.0 50.2 -- -- 0.0 0.0 --- 0.00 29.881
04/11/2005 12:00 a -- 49.7 49.7 50.4 49.2 -- -- 0.0 0.0 --- 0.00 29.875
04/11/2005 12:30 a -- 48.8 48.8 49.2 48.3 -- -- 0.0 0.0 --- 0.00 29.877
04/11/2005 1:00 a -- 48.2 48.2 48.9 47.6 -- -- 0.0 0.0 --- 0.00 29.885
04/11/2005 1:30 a -- 55.1 55.1 57.9 48.4 -- -- 0.0 3.0 SW 0.00 29.885
04/11/2005 2:00 a -- 57.1 57.1 57.7 56.2 -- -- 0.0 3.0 SSW 0.00 29.886
04/11/2005 2:30 a -- 56.2 56.2 56.6 55.8 -- -- 0.0 4.0 SSW 0.00 29.894
04/11/2005 3:00 a -- 55.6 55.6 56.6 54.5 -- -- 0.0 3.0 SW 0.00 29.910
04/11/2005 3:30 a -- 54.6 54.6 55.1 54.1 -- -- 0.0 3.0 WSW 0.00 29.919
04/11/2005 4:00 a -- 53.9 53.9 54.4 53.4 -- -- 2.0 6.0 SW 0.00 29.927
04/11/2005 4:30 a -- 53.3 53.3 53.6 52.9 -- -- 1.0 4.0 SW 0.00 29.939
04/11/2005 5:00 a -- 52.6 52.6 53.0 52.1 -- -- 1.0 4.0 SW 0.00 29.952
04/11/2005 5:30 a -- 51.8 51.8 52.2 51.3 -- -- 1.0 5.0 SW 0.00 29.966
04/11/2005 6:00 a -- 50.9 50.9 51.3 50.3 -- -- 1.0 3.0 SW 0.00 29.969
04/11/2005 6:30 a -- 50.0 50.0 50.3 49.7 -- -- 1.0 5.0 SSW 0.00 29.992
04/11/2005 7:00 a -- 49.8 49.8 50.4 49.5 -- -- 1.0 3.0 SW 0.00 30.002
04/11/2005 7:30 a -- 50.7 50.7 51.2 50.3 -- -- 1.0 3.0 SW 0.00 30.004
04/11/2005 8:00 a -- 51.6 51.6 52.1 51.2 -- -- 1.0 4.0 SW 0.00 30.009
04/11/2005 8:30 a -- 52.3 52.3 52.6 51.8 -- -- 1.0 5.0 SSW 0.00 30.013
04/11/2005 9:00 a -- 53.2 53.2 54.0 52.3 -- -- 1.0 5.0 SW 0.00 30.022
04/11/2005 9:30 a -- 54.5 54.5 55.3 53.1 -- -- 1.0 5.0 WSW 0.00 30.033
04/11/2005 10:00 a -- 55.4 55.4 56.2 54.7 -- -- 2.0 6.0 WNW 0.00 30.029
04/11/2005 10:30 a -- 55.7 55.7 56.8 54.9 -- -- 2.0 5.0 SW 0.00 30.027
04/11/2005 11:00 a -- 57.0 57.0 57.7 56.2 -- -- 1.0 4.0 W 0.00 30.019
04/11/2005 11:30 a -- 57.5 57.5 58.6 56.6 -- -- 1.0 6.0 WNW 0.00 30.007
04/11/2005 12:00 p -- 58.8 58.8 59.6 58.0 -- -- 1.0 8.0 SE 0.00 30.002
04/11/2005 12:30 p -- 59.6 59.6 60.3 58.8 -- -- 2.0 7.0 SE 0.00 29.995
04/11/2005 1:00 p -- 60.2 60.2 61.2 59.3 -- -- 2.0 8.0 SE 0.00 29.988
04/11/2005 1:30 p -- 60.9 60.9 62.0 59.8 -- -- 1.0 5.0 SE 0.00 29.977
04/11/2005 2:00 p -- 61.4 61.4 63.0 60.2 -- -- 1.0 4.0 SSW 0.00 29.968
04/11/2005 2:30 p -- 61.5 61.5 62.3 60.7 -- -- 1.0 6.0 SW 0.00 29.956
04/11/2005 3:00 p -- 61.9 61.9 62.6 61.3 -- -- 2.0 8.0 WNW 0.00 29.941
04/11/2005 3:30 p -- 61.8 61.8 63.6 60.8 -- -- 1.0 4.0 NNW 0.00 29.919
04/11/2005 4:00 p -- 61.2 61.2 61.9 60.5 -- -- 1.0 5.0 NW 0.00 29.902
04/11/2005 4:30 p -- 60.5 60.5 61.0 59.9 -- -- 2.0 5.0 N 0.00 29.902
04/11/2005 5:00 p -- 58.9 58.9 60.0 57.1 -- -- 2.0 6.0 N 0.00 29.906
04/11/2005 5:30 p -- 56.8 56.8 57.4 56.4 -- -- 2.0 8.0 NNW 0.00 29.915
04/11/2005 6:00 p -- 56.0 56.0 56.5 55.3 -- -- 1.0 5.0 N 0.00 29.923
04/11/2005 6:30 p -- 54.2 54.2 55.4 53.4 -- -- 1.0 6.0 N 0.00 29.928
04/11/2005 7:00 p -- 52.8 52.8 53.5 51.8 -- -- 1.0 4.0 N 0.00 29.942
04/11/2005 7:30 p -- 50.9 50.9 51.8 49.8 -- -- 1.0 6.0 N 0.00 29.956
04/11/2005 8:00 p -- 48.3 48.3 49.7 47.2 -- -- 1.0 4.0 N 0.00 29.963
04/11/2005 8:30 p -- 48.0 48.0 49.1 47.2 -- -- 0.0 2.0 N 0.00 29.982
04/11/2005 9:00 p -- 47.2 47.2 48.5 45.6 -- -- 0.0 3.0 N 0.00 30.000
04/11/2005 9:30 p -- 46.5 46.5 47.7 45.0 -- -- 0.0 2.0 N 0.00 30.011
04/11/2005 10:00 p -- 43.9 43.9 45.1 43.2 -- -- 0.0 0.0 --- 0.00 30.012
04/11/2005 10:30 p -- 43.1 43.1 43.4 42.8 -- -- 0.0 0.0 --- 0.00 30.012
04/11/2005 11:00 p -- 42.3 42.3 43.0 41.2 -- -- 0.0 2.0 N 0.00 30.016
04/11/2005 11:30 p -- 41.4 41.4 41.7 41.1 -- -- 0.0 0.0 --- 0.00 30.020
04/12/2005 12:00 a -- 40.7 40.7 41.6 40.0 -- -- 0.0 2.0 W 0.00 30.031
04/12/2005 12:30 a -- 42.5 42.5 43.1 41.6 -- -- 0.0 4.0 SSW 0.00 30.034
04/12/2005 1:00 a -- 42.8 42.8 43.2 42.5 -- -- 2.0 5.0 S 0.00 30.032
04/12/2005 1:30 a -- 42.1 42.1 42.6 41.7 -- -- 1.0 6.0 SW 0.00 30.029
04/12/2005 2:00 a -- 41.3 41.3 41.8 40.8 -- -- 1.0 5.0 SW 0.00 30.020
04/12/2005 2:30 a -- 40.6 40.6 41.0 40.2 -- -- 1.0 3.0 SW 0.00 30.016
04/12/2005 3:00 a -- 39.9 39.9 40.5 39.5 -- -- 0.0 3.0 SW 0.00 30.018
04/12/2005 3:30 a -- 39.4 39.4 39.8 38.8 -- -- 0.0 3.0 SW 0.00 30.017
04/12/2005 4:00 a -- 39.0 39.0 39.2 38.5 -- -- 1.0 4.0 SSW 0.00 30.022
04/12/2005 4:30 a -- 38.1 38.1 38.7 37.8 -- -- 0.0 4.0 SW 0.00 30.018
04/12/2005 5:00 a -- 37.7 37.7 38.2 37.0 -- -- 0.0 3.0 WSW 0.00 30.020
04/12/2005 5:30 a -- 36.5 36.5 37.3 35.4 -- -- 0.0 1.0 WSW 0.00 30.020
04/12/2005 6:00 a -- 34.8 34.8 35.4 34.3 -- -- 0.0 0.0 --- 0.00 30.025
04/12/2005 6:30 a -- 34.2 34.2 34.7 33.5 -- -- 0.0 0.0 --- 0.00 30.038
04/12/2005 7:00 a -- 34.2 34.2 35.3 33.2 -- -- 0.0 0.0 --- 0.00 30.046
04/12/2005 7:30 a -- 36.9 36.9 39.0 35.3 -- -- 0.0 4.0 SSE 0.00 30.053
04/12/2005 8:00 a -- 39.9 39.9 40.5 39.0 -- -- 1.0 5.0 SE 0.00 30.052
04/12/2005 8:30 a -- 41.3 41.3 41.9 40.4 -- -- 1.0 5.0 S 0.00 30.041
04/12/2005 9:00 a -- 43.0 43.0 43.9 41.8 -- -- 1.0 7.0 SE 0.00 30.035
04/12/2005 9:30 a -- 44.7 44.7 46.1 43.6 -- -- 1.0 5.0 WSW 0.00 30.030
04/12/2005 10:00 a -- 46.2 46.2 47.1 45.2 -- -- 1.0 6.0 SE 0.00 30.020
04/12/2005 10:30 a -- 47.4 47.4 49.0 46.2 -- -- 1.0 6.0 SW 0.00 30.006
04/12/2005 11:00 a -- 49.5 49.5 50.8 48.6 -- -- 1.0 6.0 WNW 0.00 29.993
04/12/2005 11:30 a -- 50.7 50.7 51.9 49.1 -- -- 1.0 6.0 N 0.00 29.968
04/12/2005 12:00 p -- 52.0 52.0 53.2 50.5 -- -- 1.0 5.0 WNW 0.00 29.946
04/12/2005 12:30 p -- 53.2 53.2 54.1 52.4 -- -- 1.0 6.0 SE 0.00 29.924
04/12/2005 1:00 p -- 54.3 54.3 55.3 53.5 -- -- 2.0 8.0 SE 0.00 29.909
04/12/2005 1:30 p -- 55.2 55.2 56.4 54.1 -- -- 1.0 7.0 SSW 0.00 29.899
04/12/2005 2:00 p -- 56.1 56.1 56.8 54.9 -- -- 2.0 8.0 SE 0.00 29.884
04/12/2005 2:30 p -- 56.9 56.9 58.0 55.4 -- -- 2.0 8.0 SE 0.00 29.867
04/12/2005 3:00 p -- 57.9 57.9 59.4 56.3 -- -- 2.0 10.0 SE 0.00 29.849
04/12/2005 3:30 p -- 57.7 57.7 58.8 56.9 -- -- 1.0 6.0 SE 0.00 29.828
04/12/2005 4:00 p -- 57.7 57.7 58.8 57.0 -- -- 2.0 10.0 SE 0.00 29.812
04/12/2005 4:30 p -- 58.3 58.3 59.0 57.6 -- -- 1.0 5.0 SE 0.00 29.795
04/12/2005 5:00 p -- 58.1 58.1 58.7 57.5 -- -- 1.0 6.0 SE 0.00 29.782
04/12/2005 5:30 p -- 57.2 57.2 57.9 56.6 -- -- 2.0 6.0 SE 0.00 29.774
04/12/2005 6:00 p -- 56.9 56.9 57.3 56.4 -- -- 1.0 5.0 SE 0.00 29.759
04/12/2005 6:30 p -- 55.5 55.5 56.5 54.6 -- -- 0.0 3.0 SSE 0.00 29.761
04/12/2005 7:00 p -- 54.0 54.0 54.7 53.0 -- -- 0.0 3.0 SE 0.00 29.757
04/12/2005 7:30 p -- 52.0 52.0 53.5 50.9 -- -- 0.0 3.0 SSE 0.00 29.758
04/12/2005 8:00 p -- 49.9 49.9 51.0 49.0 -- -- 0.0 0.0 --- 0.00 29.768
04/12/2005 8:30 p -- 48.5 48.5 49.0 48.0 -- -- 0.0 0.0 --- 0.00 29.776
04/12/2005 9:00 p -- 48.1 48.1 48.6 47.4 -- -- 0.0 0.0 --- 0.00 29.779
04/12/2005 9:30 p -- 46.9 46.9 47.7 45.9 -- -- 0.0 0.0 --- 0.00 29.785
04/12/2005 10:00 p -- 45.0 45.0 46.0 44.2 -- -- 0.0 0.0 --- 0.00 29.785
04/12/2005 10:30 p -- 43.8 43.8 44.4 42.9 -- -- 0.0 0.0 --- 0.00 29.786
04/12/2005 11:00 p -- 42.4 42.4 42.9 41.9 -- -- 0.0 0.0 --- 0.00 29.785
04/12/2005 11:30 p -- 42.3 42.3 42.7 42.1 -- -- 0.0 0.0 --- 0.00 29.787
04/13/2005 12:00 a -- 42.1 42.1 42.5 41.8 -- -- 0.0 0.0 --- 0.00 29.786
04/13/2005 12:30 a -- 41.6 41.6 41.9 41.2 -- -- 0.0 0.0 --- 0.00 29.784
04/13/2005 1:00 a -- 41.1 41.1 41.5 40.5 -- -- 0.0 0.0 --- 0.00 29.777
04/13/2005 1:30 a -- 40.7 40.7 41.0 40.2 -- -- 0.0 1.0 SSE 0.00 29.772
04/13/2005 2:00 a -- 39.7 39.7 40.7 38.9 -- -- 0.0 0.0 --- 0.00 29.765
04/13/2005 2:30 a -- 38.5 38.5 38.9 37.9 -- -- 0.0 0.0 --- 0.00 29.765
04/13/2005 3:00 a -- 37.5 37.5 38.0 37.1 -- -- 0.0 0.0 --- 0.00 29.764
04/13/2005 3:30 a -- 36.9 36.9 37.4 36.3 -- -- 0.0 0.0 --- 0.00 29.759
04/13/2005 4:00 a -- 35.8 35.8 36.5 35.3 -- -- 0.0 0.0 --- 0.00 29.758
04/13/2005 4:30 a -- 35.0 35.0 35.3 34.7 -- -- 0.0 0.0 --- 0.00 29.758
04/13/2005 5:00 a -- 34.7 34.7 35.1 34.1 -- -- 0.0 0.0 --- 0.00 29.764
04/13/2005 5:30 a -- 33.7 33.7 34.1 33.3 -- -- 0.0 0.0 --- 0.00 29.780
04/13/2005 6:00 a -- 33.5 33.5 33.9 33.2 -- -- 0.0 0.0 --- 0.00 29.780
04/13/2005 6:30 a -- 33.9 33.9 34.2 33.7 -- -- 0.0 0.0 --- 0.00 29.786
04/13/2005 7:00 a -- 35.0 35.0 36.3 33.7 -- -- 0.0 0.0 --- 0.00 29.801
04/13/2005 7:30 a -- 40.0 40.0 43.3 36.3 -- -- 0.0 3.0 SSE 0.00 29.804
04/13/2005 8:00 a -- 44.3 44.3 45.1 43.3 -- -- 1.0 4.0 SSW 0.00 29.807
04/13/2005 8:30 a -- 45.7 45.7 46.9 44.8 -- -- 1.0 5.0 SW 0.00 29.805
04/13/2005 9:00 a -- 48.1 48.1 49.2 46.8 -- -- 1.0 4.0 W 0.00 29.814
04/13/2005 9:30 a -- 50.1 50.1 51.1 49.2 -- -- 1.0 5.0 SW 0.00 29.824
04/13/2005 10:00 a -- 50.5 50.5 51.4 49.7 -- -- 2.0 6.0 SW 0.00 29.833
04/13/2005 10:30 a -- 51.8 51.8 52.7 50.9 -- -- 2.0 6.0 SE 0.00 29.840
04/13/2005 11:00 a -- 52.3 52.3 53.8 51.1 -- -- 2.0 6.0 SSE 0.00 29.832
04/13/2005 11:30 a -- 53.0 53.0 54.0 52.4 -- -- 2.0 5.0 SW 0.00 29.829
04/13/2005 12:00 p -- 54.4 54.4 55.4 53.6 -- -- 2.0 6.0 SSW 0.00 29.834
04/13/2005 12:30 p -- 55.3 55.3 56.3 54.6 -- -- 2.0 6.0 WSW 0.00 29.830
04/13/2005 1:00 p -- 56.4 56.4 57.2 55.8 -- -- 2.0 6.0 SW 0.00 29.811
04/13/2005 1:30 p -- 57.2 57.2 58.6 55.8 -- -- 1.0 5.0 SE 0.00 29.809
04/13/2005 2:00 p -- 57.8 57.8 58.4 56.9 -- -- 2.0 7.0 WNW 0.00 29.813
04/13/2005 2:30 p -- 58.3 58.3 59.4 57.3 -- -- 2.0 8.0 SE 0.00 29.800
04/13/2005 3:00 p -- 58.3 58.3 59.5 57.4 -- -- 2.0 7.0 SE 0.00 29.796
04/13/2005 3:30 p -- 58.5 58.5 59.4 57.9 -- -- 2.0 6.0 SE 0.00 29.790
04/13/2005 4:00 p -- 58.8 58.8 59.5 57.8 -- -- 2.0 6.0 SE 0.00 29.789
04/13/2005 4:30 p -- 58.7 58.7 59.2 57.6 -- -- 1.0 5.0 NNW 0.00 29.791
04/13/2005 5:00 p -- 56.8 56.8 57.8 56.2 -- -- 2.0 8.0 N 0.00 29.801
04/13/2005 5:30 p -- 56.0 56.0 56.6 55.4 -- -- 1.0 5.0 N 0.00 29.802
04/13/2005 6:00 p -- 55.1 55.1 56.0 54.3 -- -- 1.0 4.0 N 0.00 29.808
04/13/2005 6:30 p -- 53.9 53.9 54.4 53.3 -- -- 1.0 3.0 NNW 0.00 29.809
04/13/2005 7:00 p -- 52.5 52.5 53.3 51.6 -- -- 0.0 4.0 N 0.00 29.812
04/13/2005 7:30 p -- 50.5 50.5 51.7 49.6 -- -- 1.0 4.0 N 0.00 29.827
04/13/2005 8:00 p -- 49.6 49.6 50.8 48.8 -- -- 0.0 3.0 NNE 0.00 29.837
04/13/2005 8:30 p -- 48.1 48.1 49.3 46.5 -- -- 0.0 2.0 NNE 0.00 29.854
04/13/2005 9:00 p -- 45.8 45.8 47.4 44.7 -- -- 0.0 1.0 N 0.00 29.872
04/13/2005 9:30 p -- 45.0 45.0 45.7 43.9 -- -- 0.0 1.0 N 0.00 29.883
04/13/2005 10:00 p -- 43.3 43.3 44.0 42.9 -- -- 0.0 0.0 --- 0.00 29.885
04/13/2005 10:30 p -- 42.2 42.2 43.1 41.7 -- -- 0.0 0.0 --- 0.00 29.883
04/13/2005 11:00 p -- 41.2 41.2 41.9 40.3 -- -- 0.0 0.0 --- 0.00 29.892
04/13/2005 11:30 p -- 40.4 40.4 40.7 40.0 -- -- 0.0 0.0 --- 0.00 29.894
04/14/2005 12:00 a -- 40.0 40.0 40.5 39.6 -- -- 0.0 0.0 --- 0.00 29.898
04/14/2005 12:30 a -- 38.9 38.9 39.7 38.4 -- -- 0.0 0.0 --- 0.00 29.895
04/14/2005 1:00 a -- 38.0 38.0 38.4 37.8 -- -- 0.0 0.0 --- 0.00 29.897
04/14/2005 1:30 a -- 37.9 37.9 38.2 37.7 -- -- 0.0 0.0 --- 0.00 29.888
04/14/2005 2:00 a -- 37.6 37.6 38.0 36.9 -- -- 0.0 0.0 --- 0.00 29.882
04/14/2005 2:30 a -- 37.2 37.2 37.5 36.9 -- -- 0.0 0.0 --- 0.00 29.871
04/14/2005 3:00 a -- 36.6 36.6 37.1 36.0 -- -- 0.0 0.0 --- 0.00 29.869
04/14/2005 3:30 a -- 36.0 36.0 37.0 35.5 -- -- 0.0 0.0 --- 0.00 29.862
04/14/2005 4:00 a -- 36.0 36.0 36.4 35.6 -- -- 0.0 0.0 --- 0.00 29.860
04/14/2005 4:30 a -- 36.6 36.6 37.0 36.2 -- -- 0.0 0.0 --- 0.00 29.867
04/14/2005 5:00 a -- 36.8 36.8 37.0 36.6 -- -- 0.0 0.0 --- 0.00 29.871
04/14/2005 5:30 a -- 36.8 36.8 36.9 36.6 -- -- 0.0 0.0 --- 0.00 29.871
04/14/2005 6:00 a -- 36.8 36.8 37.0 36.5 -- -- 0.0 0.0 --- 0.00 29.874
04/14/2005 6:30 a -- 36.7 36.7 37.1 36.5 -- -- 0.0 0.0 --- 0.00 29.885
04/14/2005 7:00 a -- 37.8 37.8 38.9 37.1 -- -- 0.0 0.0 --- 0.00 29.887
04/14/2005 7:30 a -- 41.8 41.8 46.4 38.9 -- -- 0.0 2.0 N 0.00 29.893
04/14/2005 8:00 a -- 48.6 48.6 50.3 46.5 -- -- 0.0 2.0 E 0.00 29.902
04/14/2005 8:30 a -- 51.0 51.0 52.1 50.2 -- -- 1.0 4.0 SW 0.00 29.913
04/14/2005 9:00 a -- 53.1 53.1 54.3 52.0 -- -- 1.0 5.0 SW 0.00 29.915
04/14/2005 9:30 a -- 55.4 55.4 57.1 54.2 -- -- 1.0 5.0 SW 0.00 29.917
04/14/2005 10:00 a -- 57.2 57.2 58.3 56.6 -- -- 2.0 5.0 SSW 0.00 29.922
04/14/2005 10:30 a -- 58.9 58.9 59.9 58.3 -- -- 1.0 5.0 WNW 0.00 29.925
04/14/2005 11:00 a -- 59.8 59.8 60.7 58.8 -- -- 2.0 5.0 NW 0.00 29.923
04/14/2005 11:30 a -- 60.9 60.9 61.9 59.6 -- -- 2.0 6.0 WNW 0.00 29.917
04/14/2005 12:00 p -- 62.3 62.3 63.6 61.3 -- -- 1.0 5.0 W 0.00 29.916
04/14/2005 12:30 p -- 63.8 63.8 64.8 62.5 -- -- 2.0 6.0 NW 0.00 29.913
04/14/2005 1:00 p -- 65.1 65.1 66.3 64.3 -- -- 1.0 5.0 WNW 0.00 29.911
04/14/2005 1:30 p -- 65.8 65.8 66.5 64.9 -- -- 2.0 6.0 WNW 0.00 29.911
04/14/2005 2:00 p -- 66.4 66.4 67.3 65.5 -- -- 2.0 6.0 NW 0.00 29.903
04/14/2005 2:30 p -- 65.7 65.7 67.0 63.7 -- -- 2.0 7.0 NNW 0.00 29.907
04/14/2005 3:00 p -- 63.6 63.6 64.3 63.0 -- -- 2.0 6.0 NNW 0.00 29.906
04/14/2005 3:30 p -- 62.6 62.6 63.6 61.9 -- -- 3.0 8.0 N 0.00 29.904
04/14/2005 4:00 p -- 62.1 62.1 63.1 60.7 -- -- 3.0 7.0 NNW 0.00 29.920
04/14/2005 4:30 p -- 60.5 60.5 61.2 59.5 -- -- 3.0 9.0 NNW 0.00 29.928
04/14/2005 5:00 p -- 58.1 58.1 59.5 57.3 -- -- 2.0 8.0 NNW 0.00 29.939
04/14/2005 5:30 p -- 56.5 56.5 58.0 55.9 -- -- 2.0 7.0 NNW 0.00 29.952
04/14/2005 6:00 p -- 55.0 55.0 56.2 53.8 -- -- 2.0 7.0 N 0.00 29.970
04/14/2005 6:30 p -- 52.5 52.5 53.9 51.3 -- -- 3.0 8.0 NNW 0.00 29.984
04/14/2005 7:00 p -- 50.5 50.5 51.3 50.0 -- -- 2.0 7.0 NNW 0.00 30.008
04/14/2005 7:30 p -- 49.6 49.6 50.5 48.6 -- -- 2.0 8.0 N 0.00 30.028
04/14/2005 8:00 p -- 48.4 48.4 49.0 47.5 -- -- 2.0 11.0 NNW 0.00 30.044
04/14/2005 8:30 p -- 47.4 47.4 48.2 46.6 -- -- 2.0 8.0 NNW 0.00 30.068
04/14/2005 9:00 p -- 45.9 45.9 46.7 45.6 -- -- 1.0 7.0 N 0.00 30.084
04/14/2005 9:30 p -- 45.5 45.5 45.7 45.3 -- -- 2.0 6.0 N 0.00 30.097
04/14/2005 10:00 p -- 44.9 44.9 45.4 44.6 -- -- 2.0 8.0 NNW 0.00 30.108
04/14/2005 10:30 p -- 44.4 44.4 44.7 44.1 -- -- 2.0 8.0 NNW 0.00 30.117
04/14/2005 11:00 p -- 43.9 43.9 44.2 43.5 -- -- 1.0 6.0 N 0.00 30.127
04/14/2005 11:30 p -- 43.5 43.5 43.7 43.4 -- -- 1.0 5.0 N 0.00 30.134
04/15/2005 12:00 a -- 43.0 43.0 43.5 42.7 -- -- 0.0 2.0 N 0.00 30.151
04/15/2005 12:30 a -- 42.9 42.9 43.5 42.4 -- -- 0.0 5.0 WNW 0.00 30.158
04/15/2005 1:00 a -- 43.1 43.1 43.5 42.6 -- -- 0.0 3.0 NW 0.00 30.166
04/15/2005 1:30 a -- 42.2 42.2 42.6 41.9 -- -- 0.0 1.0 N 0.00 30.170
04/15/2005 2:00 a -- 42.5 42.5 42.9 42.2 -- -- 0.0 3.0 NW 0.00 30.174
04/15/2005 2:30 a -- 42.7 42.7 43.6 42.3 -- -- 1.0 5.0 NW 0.00 30.178
04/15/2005 3:00 a -- 42.8 42.8 43.4 42.5 -- -- 0.0 3.0 WNW 0.00 30.190
04/15/2005 3:30 a -- 42.7 42.7 43.1 42.5 -- -- 1.0 3.0 WNW 0.00 30.193
04/15/2005 4:00 a -- 42.2 42.2 42.6 41.9 -- -- 1.0 4.0 WNW 0.00 30.204
04/15/2005 4:30 a -- 42.0 42.0 42.4 41.5 -- -- 1.0 5.0 WNW 0.00 30.205
04/15/2005 5:00 a -- 41.6 41.6 42.2 41.1 -- -- 1.0 4.0 WNW 0.00 30.213
04/15/2005 5:30 a -- 40.8 40.8 41.3 40.6 -- -- 1.0 3.0 WSW 0.00 30.226
04/15/2005 6:00 a -- 40.5 40.5 40.8 40.2 -- -- 1.0 4.0 WNW 0.00 30.238
04/15/2005 6:30 a -- 40.5 40.5 41.0 40.2 -- -- 1.0 5.0 W 0.00 30.248
04/15/2005 7:00 a -- 41.1 41.1 41.4 40.5 -- -- 1.0 5.0 WNW 0.00 30.261
04/15/2005 7:30 a -- 41.9 41.9 42.4 41.4 -- -- 2.0 6.0 W 0.00 30.275
04/15/2005 8:00 a -- 43.1 43.1 43.8 42.4 -- -- 2.0 7.0 WNW 0.00 30.281
04/15/2005 8:30 a -- 44.5 44.5 45.5 43.5 -- -- 2.0 9.0 WNW 0.00 30.295
04/15/2005 9:00 a -- 46.1 46.1 47.3 45.3 -- -- 2.0 7.0 W 0.00 30.308
04/15/2005 9:30 a -- 47.9 47.9 49.0 46.9 -- -- 3.0 8.0 NW 0.00 30.323
04/15/2005 10:00 a -- 49.4 49.4 50.4 48.5 -- -- 3.0 10.0 WNW 0.00 30.331
04/15/2005 10:30 a -- 50.0 50.0 51.0 49.4 -- -- 3.0 8.0 WNW 0.00 30.332
04/15/2005 11:00 a -- 51.0 51.0 52.1 50.3 -- -- 3.0 7.0 WNW 0.00 30.339
04/15/2005 11:30 a -- 52.3 52.3 53.4 51.2 -- -- 2.0 6.0 WNW 0.00 30.340
04/15/2005 12:00 p -- 54.0 54.0 55.0 52.6 -- -- 2.0 6.0 NW 0.00 30.338
04/15/2005 12:30 p -- 55.0 55.0 55.6 54.4 -- -- 2.0 6.0 WNW 0.00 30.335
04/15/2005 1:00 p -- 56.6 56.6 57.7 55.3 -- -- 2.0 8.0 NW 0.00 30.333
04/15/2005 1:30 p -- 57.3 57.3 58.3 56.0 -- -- 2.0 8.0 NW 0.00 30.333
04/15/2005 2:00 p -- 57.9 57.9 59.0 57.1 -- -- 2.0 6.0 N 0.00 30.323
04/15/2005 2:30 p -- 57.9 57.9 58.7 57.0 -- -- 2.0 6.0 WNW 0.00 30.323
04/15/2005 3:00 p -- 58.6 58.6 59.6 57.5 -- -- 2.0 7.0 NW 0.00 30.318
04/15/2005 3:30 p -- 58.1 58.1 59.2 56.1 -- -- 2.0 7.0 NNW 0.00 30.322
04/15/2005 4:00 p -- 55.3 55.3 56.5 54.5 -- -- 3.0 7.0 NNW 0.00 30.334
04/15/2005 4:30 p -- 53.9 53.9 55.1 53.1 -- -- 3.0 6.0 N 0.00 30.341
04/15/2005 5:00 p -- 52.8 52.8 53.9 51.9 -- -- 3.0 8.0 NNW 0.00 30.346
04/15/2005 5:30 p -- 51.2 51.2 52.3 50.1 -- -- 3.0 7.0 NNW 0.00 30.362
04/15/2005 6:00 p -- 49.7 49.7 50.6 48.6 -- -- 2.0 7.0 NNW 0.00 30.365
04/15/2005 6:30 p -- 48.0 48.0 48.9 47.2 -- -- 2.0 5.0 N 0.00 30.368
04/15/2005 7:00 p -- 46.6 46.6 47.3 45.7 -- -- 1.0 5.0 N 0.00 30.374
04/15/2005 7:30 p -- 45.1 45.1 45.7 44.5 -- -- 1.0 5.0 NNW 0.00 30.382
04/15/2005 8:00 p -- 43.9 43.9 44.5 43.4 -- -- 1.0 4.0 N 0.00 30.388
04/15/2005 8:30 p -- 43.2 43.2 43.5 42.8 -- -- 1.0 3.0 N 0.00 30.398
04/15/2005 9:00 p -- 42.5 42.5 42.8 42.2 -- -- 0.0 3.0 N 0.00 30.403
04/15/2005 9:30 p -- 41.6 41.6 42.4 41.2 -- -- 0.0 1.0 N 0.00 30.405
04/15/2005 10:00 p -- 40.9 40.9 41.3 40.6 -- -- 0.0 0.0 --- 0.00 30.404
04/15/2005 10:30 p -- 39.9 39.9 40.6 39.1 -- -- 0.0 0.0 --- 0.00 30.406
04/15/2005 11:00 p -- 38.5 38.5 39.1 38.2 -- -- 0.0 0.0 --- 0.00 30.415
04/15/2005 11:30 p -- 37.6 37.6 38.5 36.9 -- -- 0.0 0.0 --- 0.00 30.413
04/16/2005 12:00 a -- 36.8 36.8 37.3 36.4 -- -- 0.0 0.0 --- 0.00 30.411
04/16/2005 12:30 a -- 36.3 36.3 36.7 35.8 -- -- 0.0 0.0 --- 0.00 30.406
04/16/2005 1:00 a -- 35.8 35.8 36.1 35.3 -- -- 0.0 0.0 --- 0.00 30.399
04/16/2005 1:30 a -- 34.9 34.9 35.7 34.4 -- -- 0.0 0.0 --- 0.00 30.397
04/16/2005 2:00 a -- 34.2 34.2 34.8 33.8 -- -- 0.0 0.0 --- 0.00 30.393
04/16/2005 2:30 a -- 34.2 34.2 34.5 33.8 -- -- 0.0 0.0 --- 0.00 30.391
04/16/2005 3:00 a -- 34.6 34.6 35.9 33.9 -- -- 0.0 0.0 --- 0.00 30.392
04/16/2005 3:30 a -- 35.6 35.6 35.9 35.3 -- -- 0.0 0.0 --- 0.00 30.393
04/16/2005 4:00 a -- 36.4 36.4 37.5 35.2 -- -- 0.0 0.0 --- 0.00 30.396
04/16/2005 4:30 a -- 37.5 37.5 38.1 37.1 -- -- 0.0 0.0 --- 0.00 30.400
04/16/2005 5:00 a -- 37.7 37.7 38.5 37.2 -- -- 0.0 0.0 --- 0.00 30.400
04/16/2005 5:30 a -- 37.1 37.1 37.8 36.5 -- -- 0.0 0.0 --- 0.00 30.405
04/16/2005 6:00 a -- 36.9 36.9 37.6 35.6 -- -- 0.0 0.0 --- 0.00 30.415
04/16/2005 6:30 a -- 37.9 37.9 38.9 35.9 -- -- 0.0 0.0 --- 0.00 30.432
04/16/2005 7:00 a -- 39.9 39.9 41.1 38.9 -- -- 0.0 1.0 --- 0.00 30.447
04/16/2005 7:30 a -- 42.3 42.3 43.4 41.1 -- -- 0.0 3.0 WNW 0.00 30.464
04/16/2005 8:00 a -- 44.7 44.7 45.9 43.4 -- -- 1.0 3.0 SW 0.00 30.468
04/16/2005 8:30 a -- 47.1 47.1 48.1 45.9 -- -- 1.0 4.0 WNW 0.00 30.475
04/16/2005 9:00 a -- 49.7 49.7 50.9 48.1 -- -- 1.0 4.0 WNW 0.00 30.481
04/16/2005 9:30 a -- 51.6 51.6 52.5 50.4 -- -- 1.0 5.0 W 0.00 30.483
04/16/2005 10:00 a -- 53.1 53.1 54.3 51.9 -- -- 2.0 5.0 NW 0.00 30.478
04/16/2005 10:30 a -- 54.7 54.7 55.7 53.4 -- -- 1.0 5.0 WNW 0.00 30.470
04/16/2005 11:00 a -- 55.4 55.4 56.2 54.8 -- -- 2.0 5.0 NW 0.00 30.458
04/16/2005 11:30 a -- 56.4 56.4 56.9 55.9 -- -- 2.0 5.0 WNW 0.00 30.441
04/16/2005 12:00 p -- 57.6 57.6 58.5 56.7 -- -- 2.0 6.0 NW 0.00 30.432
04/16/2005 12:30 p -- 58.7 58.7 59.4 57.7 -- -- 2.0 6.0 NW 0.00 30.418
04/16/2005 1:00 p -- 59.5 59.5 60.4 58.5 -- -- 2.0 7.0 WNW 0.00 30.413
04/16/2005 1:30 p -- 59.7 59.7 60.8 58.8 -- -- 2.0 7.0 NW 0.00 30.404
04/16/2005 2:00 p -- 60.5 60.5 62.0 59.2 -- -- 2.0 7.0 WNW 0.00 30.389
04/16/2005 2:30 p -- 60.9 60.9 62.2 60.2 -- -- 2.0 8.0 WNW 0.00 30.382
04/16/2005 3:00 p -- 60.6 60.6 62.0 59.4 -- -- 2.0 6.0 N 0.00 30.367
04/16/2005 3:30 p -- 60.5 60.5 61.2 59.8 -- -- 1.0 4.0 N 0.00 30.352
04/16/2005 4:00 p -- 60.5 60.5 61.5 59.6 -- -- 1.0 5.0 N 0.00 30.339
04/16/2005 4:30 p -- 59.9 59.9 60.9 58.5 -- -- 2.0 5.0 N 0.00 30.337
04/16/2005 5:00 p -- 58.3 58.3 60.1 57.4 -- -- 2.0 5.0 N 0.00 30.335
04/16/2005 5:30 p -- 57.2 57.2 58.3 56.5 -- -- 1.0 6.0 N 0.00 30.324
04/16/2005 6:00 p -- 55.6 55.6 56.8 54.6 -- -- 2.0 4.0 NNW 0.00 30.321
04/16/2005 6:30 p -- 53.9 53.9 54.8 52.9 -- -- 1.0 4.0 N 0.00 30.315
04/16/2005 7:00 p -- 53.0 53.0 53.5 52.2 -- -- 1.0 3.0 NNW 0.00 30.313
04/16/2005 7:30 p -- 50.6 50.6 53.1 48.6 -- -- 1.0 3.0 N 0.00 30.309
04/16/2005 8:00 p -- 48.9 48.9 50.0 48.2 -- -- 0.0 4.0 N 0.00 30.312
04/16/2005 8:30 p -- 49.0 49.0 50.3 47.9 -- -- 0.0 2.0 N 0.00 30.314
04/16/2005 9:00 p -- 46.4 46.4 48.1 45.7 -- -- 0.0 2.0 N 0.00 30.315
04/16/2005 9:30 p -- 45.9 45.9 46.9 45.4 -- -- 0.0 2.0 N 0.00 30.320
04/16/2005 10:00 p -- 43.4 43.4 45.4 42.0 -- -- 0.0 2.0 N 0.00 30.314
04/16/2005 10:30 p -- 41.6 41.6 42.1 40.9 -- -- 0.0 0.0 --- 0.00 30.309
04/16/2005 11:00 p -- 40.2 40.2 41.1 39.6 -- -- 0.0 0.0 --- 0.00 30.309
04/16/2005 11:30 p -- 39.2 39.2 39.9 38.7 -- -- 0.0 0.0 --- 0.00 30.304
04/17/2005 12:00 a -- 38.1 38.1 38.9 37.6 -- -- 0.0 0.0 --- 0.00 30.293
04/17/2005 12:30 a -- 37.3 37.3 37.8 36.7 -- -- 0.0 0.0 --- 0.00 30.288
04/17/2005 1:00 a -- 36.3 36.3 36.8 35.8 -- -- 0.0 0.0 --- 0.00 30.280
04/17/2005 1:30 a -- 35.6 35.6 35.9 35.3 -- -- 0.0 0.0 --- 0.00 30.269
04/17/2005 2:00 a -- 35.1 35.1 35.3 34.7 -- -- 0.0 0.0 --- 0.00 30.261
04/17/2005 2:30 a -- 34.4 34.4 35.0 34.0 -- -- 0.0 0.0 --- 0.00 30.249
04/17/2005 3:00 a -- 33.9 33.9 34.1 33.7 -- -- 0.0 0.0 --- 0.00 30.242
04/17/2005 3:30 a -- 33.7 33.7 34.1 33.2 -- -- 0.0 0.0 --- 0.00 30.225
04/17/2005 4:00 a -- 33.0 33.0 33.3 32.6 -- -- 0.0 0.0 --- 0.00 30.217
04/17/2005 4:30 a -- 32.5 32.5 32.8 32.3 -- -- 0.0 0.0 --- 0.00 30.209
04/17/2005 5:00 a -- 32.5 32.5 32.7 32.3 -- -- 0.0 0.0 --- 0.00 30.197
04/17/2005 5:30 a -- 32.2 32.2 32.6 31.9 -- -- 0.0 0.0 --- 0.00 30.188
04/17/2005 6:00 a -- 32.3 32.3 32.6 32.0 -- -- 0.0 0.0 --- 0.00 30.180
04/17/2005 6:30 a -- 32.6 32.6 33.1 32.2 -- -- 0.0 0.0 --- 0.00 30.167
04/17/2005 7:00 a -- 34.7 34.7 36.4 33.1 -- -- 0.0 0.0 --- 0.00 30.174
04/17/2005 7:30 a -- 38.8 38.8 40.9 36.4 -- -- 0.0 1.0 --- 0.00 30.172
04/17/2005 8:00 a -- 42.1 42.1 43.6 40.9 -- -- 0.0 2.0 N 0.00 30.166
04/17/2005 8:30 a -- 45.1 45.1 47.0 43.6 -- -- 0.0 1.0 N 0.00 30.158
04/17/2005 9:00 a -- 49.7 49.7 52.2 46.9 -- -- 0.0 2.0 N 0.00 30.144
04/17/2005 9:30 a -- 53.6 53.6 56.8 51.9 -- -- 0.0 3.0 E 0.00 30.137
04/17/2005 10:00 a -- 57.4 57.4 60.3 55.4 -- -- 0.0 3.0 ENE 0.00 30.122
04/17/2005 10:30 a -- 61.9 61.9 63.9 59.4 -- -- 0.0 3.0 NE 0.00 30.110
04/17/2005 11:00 a -- 65.4 65.4 68.1 63.6 -- -- 0.0 3.0 ESE 0.00 30.094
04/17/2005 11:30 a -- 69.0 69.0 70.7 67.6 -- -- 0.0 5.0 ESE 0.00 30.075
04/17/2005 12:00 p -- 71.3 71.3 73.3 69.7 -- -- 0.0 5.0 SE 0.00 30.060
04/17/2005 12:30 p -- 73.6 73.6 75.2 72.8 -- -- 1.0 4.0 NE 0.00 30.046
04/17/2005 1:00 p -- 75.1 75.1 76.3 74.0 -- -- 1.0 5.0 SE 0.00 30.026
04/17/2005 1:30 p -- 76.2 76.2 77.1 74.9 -- -- 1.0 6.0 ESE 0.00 30.016
04/17/2005 2:00 p -- 76.4 76.4 77.5 75.0 -- -- 1.0 7.0 SE 0.00 30.003
04/17/2005 2:30 p -- 76.9 76.9 78.0 75.6 -- -- 1.0 7.0 SE 0.00 29.985
04/17/2005 3:00 p -- 77.5 77.5 78.8 76.3 -- -- 1.0 5.0 ESE 0.00 29.967
04/17/2005 3:30 p -- 77.3 77.3 78.2 76.5 -- -- 1.0 5.0 SE 0.00 29.950
04/17/2005 4:00 p -- 77.0 77.0 78.0 76.4 -- -- 1.0 4.0 SE 0.00 29.937
04/17/2005 4:30 p -- 77.2 77.2 78.0 76.3 -- -- 1.0 5.0 SE 0.00 29.925
04/17/2005 5:00 p -- 76.5 76.5 77.2 75.5 -- -- 1.0 6.0 ESE 0.00 29.915
04/17/2005 5:30 p -- 75.4 75.4 76.0 74.6 -- -- 0.0 4.0 E 0.00 29.911
04/17/2005 6:00 p -- 73.8 73.8 74.8 73.1 -- -- 0.0 4.0 SE 0.00 29.902
04/17/2005 6:30 p -- 72.5 72.5 73.1 71.0 -- -- 0.0 3.0 SE 0.00 29.897
04/17/2005 7:00 p -- 70.7 70.7 71.6 69.6 -- -- 0.0 2.0 WNW 0.00 29.896
04/17/2005 7:30 p -- 68.2 68.2 69.6 67.1 -- -- 0.0 2.0 WNW 0.00 29.896
04/17/2005 8:00 p -- 65.8 65.8 67.0 64.6 -- -- 0.0 0.0 --- 0.00 29.904
04/17/2005 8:30 p -- 64.5 64.5 65.3 63.0 -- -- 0.0 1.0 --- 0.00 29.911
04/17/2005 9:00 p -- 61.7 61.7 64.4 60.8 -- -- 0.0 1.0 WNW 0.00 29.919
04/17/2005 9:30 p -- 59.6 59.6 61.0 58.3 -- -- 0.0 0.0 --- 0.00 29.926
04/17/2005 10:00 p -- 58.2 58.2 59.4 56.4 -- -- 0.0 0.0 --- 0.00 29.932
04/17/2005 10:30 p -- 55.2 55.2 56.9 54.2 -- -- 0.0 0.0 --- 0.00 29.935
04/17/2005 11:00 p -- 53.2 53.2 54.3 52.7 -- -- 0.0 0.0 --- 0.00 29.947
04/17/2005 11:30 p -- 52.3 52.3 53.0 51.4 -- -- 0.0 0.0 --- 0.00 29.945
04/18/2005 12:00 a -- 50.9 50.9 51.4 50.5 -- -- 0.0 0.0 --- 0.00 29.945
04/18/2005 12:30 a -- 50.2 50.2 50.9 49.4 -- -- 0.0 0.0 --- 0.00 29.944
04/18/2005 1:00 a -- 48.9 48.9 49.4 48.3 -- -- 0.0 0.0 --- 0.00 29.936
04/18/2005 1:30 a -- 48.6 48.6 48.9 48.1 -- -- 0.0 0.0 --- 0.00 29.932
04/18/2005 2:00 a -- 47.6 47.6 48.1 47.1 -- -- 0.0 0.0 --- 0.00 29.928
04/18/2005 2:30 a -- 47.1 47.1 47.5 46.6 -- -- 0.0 0.0 --- 0.00 29.931
04/18/2005 3:00 a -- 46.9 46.9 47.1 46.7 -- -- 0.0 0.0 --- 0.00 29.929
04/18/2005 3:30 a -- 46.4 46.4 47.0 46.0 -- -- 0.0 0.0 --- 0.00 29.929
04/18/2005 4:00 a -- 45.6 45.6 46.0 45.3 -- -- 0.0 0.0 --- 0.00 29.931
04/18/2005 4:30 a -- 45.1 45.1 45.5 44.8 -- -- 0.0 0.0 --- 0.00 29.929
04/18/2005 5:00 a -- 44.6 44.6 45.1 44.3 -- -- 0.0 0.0 --- 0.00 29.930
04/18/2005 5:30 a -- 44.0 44.0 44.6 43.6 -- -- 0.0 0.0 --- 0.00 29.936
04/18/2005 6:00 a -- 43.9 43.9 44.2 43.6 -- -- 0.0 0.0 --- 0.00 29.940
04/18/2005 6:30 a -- 43.9 43.9 44.6 43.4 -- -- 0.0 0.0 --- 0.00 29.955
04/18/2005 7:00 a -- 45.1 45.1 45.9 44.5 -- -- 0.0 0.0 --- 0.00 29.971
04/18/2005 7:30 a -- 47.9 47.9 50.9 45.9 -- -- 0.0 0.0 --- 0.00 29.979
04/18/2005 8:00 a -- 53.8 53.8 56.6 50.9 -- -- 0.0 0.0 --- 0.00 29.982
04/18/2005 8:30 a -- 59.6 59.6 62.1 56.6 -- -- 0.0 2.0 WNW 0.00 29.989
04/18/2005 9:00 a -- 64.4 64.4 66.4 62.1 -- -- 0.0 4.0 SSW 0.00 29.991
04/18/2005 9:30 a -- 67.2 67.2 68.5 66.0 -- -- 1.0 4.0 SE 0.00 29.989
04/18/2005 10:00 a -- 69.6 69.6 71.0 68.4 -- -- 0.0 3.0 SE 0.00 29.988
04/18/2005 10:30 a -- 71.1 71.1 72.0 70.3 -- -- 1.0 3.0 SW 0.00 29.992
04/18/2005 11:00 a -- 72.1 72.1 72.5 71.5 -- -- 1.0 4.0 SE 0.00 29.989
04/18/2005 11:30 a -- 73.2 73.2 73.8 72.5 -- -- 1.0 4.0 NW 0.00 29.983
04/18/2005 12:00 p